Observation data for Bootleg on 05/14/2018      Previous  Date  Next       Current Mesonet Observations  Soil Data  Daily Summary Page  Observations in Plain Language
KBO1 140500Z 22011KT 19/M02 A2998 RMK A01 T01861015  RH  026%=      5-min Rain = 0
KBO1 140501Z 22010KT 19/M01 A2998 RMK A01 T01861014  RH  026%=      5-min Rain = 0
KBO1 140502Z 22010KT 19/M02 A2998 RMK A01 T01851015  RH  026%=      5-min Rain = 0
KBO1 140503Z 22010KT 19/M02 A2998 RMK A01 T01851015  RH  026%=      5-min Rain = 0
KBO1 140504Z 22010KT 19/M02 A2998 RMK A01 T01851015  RH  026%=      5-min Rain = 0
KBO1 140505Z 22010KT 18/M02 A2998 RMK A01 T01841015  RH  026%=      5-min Rain = 0
KBO1 140506Z 22010KT 18/M02 A2998 RMK A01 T01831015  RH  026%=      5-min Rain = 0
KBO1 140507Z 22010KT 18/M02 A2998 RMK A01 T01831015  RH  026%=      5-min Rain = 0
KBO1 140508Z 22010KT 18/M02 A2998 RMK A01 T01821015  RH  026%=      5-min Rain = 0
KBO1 140509Z 22010KT 18/M02 A2998 RMK A01 T01821015  RH  026%=      5-min Rain = 0
KBO1 140510Z 22010KT 18/M02 A2998 RMK A01 T01811015  RH  026%=      5-min Rain = 0
KBO1 140511Z 22010KT 18/M01 A2998 RMK A01 T01811014  RH  026%=      5-min Rain = 0
KBO1 140512Z 22009KT 18/M01 A2998 RMK A01 T01811014  RH  026%=      5-min Rain = 0
KBO1 140513Z 22009KT 18/M01 A2999 RMK A01 T01811014  RH  027%=      5-min Rain = 0
KBO1 140514Z 22009KT 18/M01 A2999 RMK A01 T01811014  RH  027%=      5-min Rain = 0
KBO1 140515Z 22009KT 18/M01 A2999 RMK A01 T01801014  RH  027%=      5-min Rain = 0
KBO1 140516Z 22009KT 18/M01 A2999 RMK A01 T01791014  RH  027%=      5-min Rain = 0
KBO1 140517Z 22009KT 18/M01 A2999 RMK A01 T01781014  RH  027%=      5-min Rain = 0
KBO1 140518Z 22009KT 18/M01 A2999 RMK A01 T01781014  RH  027%=      5-min Rain = 0
KBO1 140519Z 22009KT 18/M01 A2999 RMK A01 T01781014  RH  027%=      5-min Rain = 0
KBO1 140520Z 22009KT 18/M01 A2999 RMK A01 T01781014  RH  027%=      5-min Rain = 0
KBO1 140521Z 22009KT 18/M02 A2999 RMK A01 T01781015  RH  027%=      5-min Rain = 0
KBO1 140522Z 22009KT 18/M02 A2999 RMK A01 T01781015  RH  027%=      5-min Rain = 0
KBO1 140523Z 22009KT 18/M02 A2999 RMK A01 T01791015  RH  027%=      5-min Rain = 0
KBO1 140524Z 22010KT 18/M02 A2999 RMK A01 T01791015  RH  027%=      5-min Rain = 0
KBO1 140525Z 22010KT 18/M02 A2999 RMK A01 T01791015  RH  027%=      5-min Rain = 0
KBO1 140526Z 22010KT 18/M02 A2999 RMK A01 T01791015  RH  027%=      5-min Rain = 0
KBO1 140527Z 22010KT 18/M02 A2999 RMK A01 T01791015  RH  027%=      5-min Rain = 0
KBO1 140528Z 22010KT 18/M02 A2999 RMK A01 T01791015  RH  027%=      5-min Rain = 0
KBO1 140529Z 22010KT 18/M02 A2999 RMK A01 T01791015  RH  027%=      5-min Rain = 0
KBO1 140530Z 22009KT 18/M02 A2999 RMK A01 T01791015  RH  027%=      5-min Rain = 0
KBO1 140531Z 22010KT 18/M01 A2999 RMK A01 T01791014  RH  027%=      5-min Rain = 0
KBO1 140532Z 22010KT 18/M02 A2999 RMK A01 T01791015  RH  027%=      5-min Rain = 0
KBO1 140533Z 22010KT 18/M02 A2998 RMK A01 T01781015  RH  027%=      5-min Rain = 0
KBO1 140534Z 22010KT 18/M02 A2998 RMK A01 T01781015  RH  027%=      5-min Rain = 0
KBO1 140535Z 22010KT 18/M02 A2998 RMK A01 T01781015  RH  027%=      5-min Rain = 0
KBO1 140536Z 22010KT 18/M02 A2998 RMK A01 T01791015  RH  027%=      5-min Rain = 0
KBO1 140537Z 22010KT 18/M02 A2998 RMK A01 T01791015  RH  027%=      5-min Rain = 0
KBO1 140538Z 21010KT 18/M01 A2998 RMK A01 T01791014  RH  027%=      5-min Rain = 0
KBO1 140539Z 21010KT 18/M02 A2999 RMK A01 T01781015  RH  027%=      5-min Rain = 0
KBO1 140540Z 21010KT 18/M01 A2999 RMK A01 T01781014  RH  027%=      5-min Rain = 0
KBO1 140541Z 21010KT 18/M01 A2999 RMK A01 T01781014  RH  027%=      5-min Rain = 0
KBO1 140542Z 21010KT 18/M01 A2999 RMK A01 T01781014  RH  027%=      5-min Rain = 0
KBO1 140543Z 21010KT 18/M01 A2999 RMK A01 T01781014  RH  027%=      5-min Rain = 0
KBO1 140544Z 21010KT 18/M01 A2999 RMK A01 T01781014  RH  027%=      5-min Rain = 0
KBO1 140545Z 21009KT 18/M01 A2998 RMK A01 T01781014  RH  027%=      5-min Rain = 0
KBO1 140546Z 21010KT 18/M01 A2998 RMK A01 T01781014  RH  027%=      5-min Rain = 0
KBO1 140547Z 21009KT 18/M01 A2998 RMK A01 T01781014  RH  027%=      5-min Rain = 0
KBO1 140548Z 21010KT 18/M01 A2998 RMK A01 T01781014  RH  027%=      5-min Rain = 0
KBO1 140549Z 21010KT 18/M01 A2998 RMK A01 T01771014  RH  027%=      5-min Rain = 0
KBO1 140550Z 21010KT 18/M01 A2998 RMK A01 T01771014  RH  027%=      5-min Rain = 0
KBO1 140551Z 21010KT 18/M01 A2998 RMK A01 T01771013  RH  027%=      5-min Rain = 0
KBO1 140552Z 21010KT 18/M01 A2998 RMK A01 T01761014  RH  027%=      5-min Rain = 0
KBO1 140553Z 21010KT 18/M01 A2998 RMK A01 T01751014  RH  028%=      5-min Rain = 0
KBO1 140554Z 22010KT 18/M01 A2998 RMK A01 T01751014  RH  028%=      5-min Rain = 0
KBO1 140555Z 22009KT 18/M01 A2998 RMK A01 T01751013  RH  028%=      5-min Rain = 0
KBO1 140556Z 22010KT 17/M01 A2998 RMK A01 T01741014  RH  028%=      5-min Rain = 0
KBO1 140557Z 22010KT 17/M01 A2998 RMK A01 T01731014  RH  028%=      5-min Rain = 0
KBO1 140558Z 22010KT 17/M01 A2998 RMK A01 T01731014  RH  028%=      5-min Rain = 0
KBO1 140559Z 22010KT 17/M01 A2998 RMK A01 T01731014  RH  028%=      5-min Rain = 0
KBO1 140600Z 22010KT 17/M01 A2998 RMK A01 T01731014  RH  028%=      5-min Rain = 0
KBO1 140601Z 22010KT 17/M01 A2998 RMK A01 T01721014  RH  028%=      5-min Rain = 0
KBO1 140602Z 22010KT 17/M01 A2998 RMK A01 T01721014  RH  028%=      5-min Rain = 0
KBO1 140603Z 22010KT 17/M01 A2998 RMK A01 T01721014  RH  028%=      5-min Rain = 0
KBO1 140604Z 22010KT 17/M01 A2998 RMK A01 T01721014  RH  028%=      5-min Rain = 0
KBO1 140605Z 22010KT 17/M01 A2998 RMK A01 T01721014  RH  028%=      5-min Rain = 0
KBO1 140606Z 22010KT 17/M02 A2998 RMK A01 T01721015  RH  028%=      5-min Rain = 0
KBO1 140607Z 22010KT 17/M02 A2998 RMK A01 T01731015  RH  028%=      5-min Rain = 0
KBO1 140608Z 22009KT 18/M01 A2998 RMK A01 T01751014  RH  028%=      5-min Rain = 0
KBO1 140609Z 22009KT 18/M01 A2998 RMK A01 T01761014  RH  027%=      5-min Rain = 0
KBO1 140610Z 22009KT 18/M02 A2998 RMK A01 T01751015  RH  027%=      5-min Rain = 0
KBO1 140611Z 22009KT 18/M02 A2998 RMK A01 T01751015  RH  027%=      5-min Rain = 0
KBO1 140612Z 22010KT 18/M01 A2998 RMK A01 T01751014  RH  027%=      5-min Rain = 0
KBO1 140613Z 22010KT 18/M01 A2998 RMK A01 T01751014  RH  028%=      5-min Rain = 0
KBO1 140614Z 22010KT 18/M01 A2998 RMK A01 T01751014  RH  028%=      5-min Rain = 0
KBO1 140615Z 22010KT 18/M01 A2998 RMK A01 T01751014  RH  028%=      5-min Rain = 0
KBO1 140616Z 22010KT 18/M01 A2998 RMK A01 T01751014  RH  028%=      5-min Rain = 0
KBO1 140617Z 22009KT 18/M01 A2998 RMK A01 T01751014  RH  028%=      5-min Rain = 0
KBO1 140618Z 22010KT 18/M01 A2998 RMK A01 T01761014  RH  027%=      5-min Rain = 0
KBO1 140619Z 22010KT 18/M01 A2998 RMK A01 T01761014  RH  027%=      5-min Rain = 0
KBO1 140620Z 22010KT 18/M01 A2998 RMK A01 T01761014  RH  027%=      5-min Rain = 0
KBO1 140621Z 22010KT 18/M01 A2998 RMK A01 T01761014  RH  028%=      5-min Rain = 0
KBO1 140622Z 22009KT 18/M01 A2998 RMK A01 T01761014  RH  028%=      5-min Rain = 0
KBO1 140623Z 22009KT 18/M01 A2998 RMK A01 T01761014  RH  028%=      5-min Rain = 0
KBO1 140624Z 22010KT 18/M01 A2998 RMK A01 T01751014  RH  028%=      5-min Rain = 0
KBO1 140625Z 22009KT 18/M01 A2998 RMK A01 T01751014  RH  028%=      5-min Rain = 0
KBO1 140626Z 22009KT 18/M01 A2998 RMK A01 T01751014  RH  028%=      5-min Rain = 0
KBO1 140627Z 22009KT 18/M01 A2998 RMK A01 T01751014  RH  028%=      5-min Rain = 0
KBO1 140628Z 22009KT 17/M01 A2998 RMK A01 T01741014  RH  028%=      5-min Rain = 0
KBO1 140629Z 22009KT 17/M01 A2998 RMK A01 T01731014  RH  028%=      5-min Rain = 0
KBO1 140630Z 22009KT 17/M01 A2998 RMK A01 T01721014  RH  028%=      5-min Rain = 0
KBO1 140631Z 22009KT 17/M01 A2998 RMK A01 T01711014  RH  028%=      5-min Rain = 0
KBO1 140632Z 22010KT 17/M01 A2998 RMK A01 T01711014  RH  028%=      5-min Rain = 0
KBO1 140633Z 22009KT 17/M02 A2998 RMK A01 T01701015  RH  028%=      5-min Rain = 0
KBO1 140634Z 22009KT 17/M01 A2998 RMK A01 T01691014  RH  029%=      5-min Rain = 0
KBO1 140635Z 22009KT 17/M02 A2998 RMK A01 T01691015  RH  029%=      5-min Rain = 0
KBO1 140636Z 22009KT 17/M02 A2998 RMK A01 T01681015  RH  029%=      5-min Rain = 0
KBO1 140637Z 22009KT 17/M02 A2998 RMK A01 T01681015  RH  029%=      5-min Rain = 0
KBO1 140638Z 22009KT 17/M02 A2998 RMK A01 T01681015  RH  029%=      5-min Rain = 0
KBO1 140639Z 22009KT 17/M02 A2998 RMK A01 T01671016  RH  029%=      5-min Rain = 0
KBO1 140640Z 22009KT 17/M02 A2998 RMK A01 T01681016  RH  029%=      5-min Rain = 0
KBO1 140641Z 22009KT 17/M02 A2998 RMK A01 T01681016  RH  029%=      5-min Rain = 0
KBO1 140642Z 22009KT 17/M02 A2998 RMK A01 T01681015  RH  029%=      5-min Rain = 0
KBO1 140643Z 22009KT 17/M02 A2998 RMK A01 T01671015  RH  029%=      5-min Rain = 0
KBO1 140644Z 22009KT 17/M02 A2998 RMK A01 T01671015  RH  029%=      5-min Rain = 0
KBO1 140645Z 22009KT 17/M02 A2998 RMK A01 T01671015  RH  029%=      5-min Rain = 0
KBO1 140646Z 22009KT 17/M02 A2998 RMK A01 T01671015  RH  029%=      5-min Rain = 0
KBO1 140647Z 22009KT 17/M02 A2998 RMK A01 T01671016  RH  029%=      5-min Rain = 0
KBO1 140648Z 22009KT 17/M02 A2998 RMK A01 T01681015  RH  029%=      5-min Rain = 0
KBO1 140649Z 22009KT 17/M02 A2998 RMK A01 T01681015  RH  029%=      5-min Rain = 0
KBO1 140650Z 22009KT 17/M02 A2998 RMK A01 T01681015  RH  029%=      5-min Rain = 0
KBO1 140651Z 22009KT 17/M02 A2998 RMK A01 T01681015  RH  029%=      5-min Rain = 0
KBO1 140652Z 22009KT 17/M02 A2998 RMK A01 T01681016  RH  029%=      5-min Rain = 0
KBO1 140653Z 22009KT 17/M02 A2998 RMK A01 T01681015  RH  029%=      5-min Rain = 0
KBO1 140654Z 22009KT 17/M02 A2998 RMK A01 T01681015  RH  029%=      5-min Rain = 0
KBO1 140655Z 22009KT 17/M02 A2998 RMK A01 T01681015  RH  029%=      5-min Rain = 0
KBO1 140656Z 22009KT 17/M01 A2998 RMK A01 T01681014  RH  029%=      5-min Rain = 0
KBO1 140657Z 22008KT 17/M02 A2998 RMK A01 T01681015  RH  029%=      5-min Rain = 0
KBO1 140658Z 22008KT 17/M02 A2998 RMK A01 T01681015  RH  029%=      5-min Rain = 0
KBO1 140659Z 23008KT 17/M02 A2998 RMK A01 T01681015  RH  029%=      5-min Rain = 0
KBO1 140700Z 23008KT 17/M02 A2998 RMK A01 T01681015  RH  029%=      5-min Rain = 0
KBO1 140701Z 23008KT 17/M01 A2998 RMK A01 T01681014  RH  029%=      5-min Rain = 0
KBO1 140702Z 23008KT 17/M02 A2998 RMK A01 T01681015  RH  029%=      5-min Rain = 0
KBO1 140703Z 23008KT 17/M02 A2998 RMK A01 T01691015  RH  029%=      5-min Rain = 0
KBO1 140704Z 23008KT 17/M02 A2998 RMK A01 T01691015  RH  028%=      5-min Rain = 0
KBO1 140705Z 23008KT 17/M02 A2998 RMK A01 T01711015  RH  028%=      5-min Rain = 0
KBO1 140706Z 23008KT 17/M02 A2998 RMK A01 T01731016  RH  028%=      5-min Rain = 0
KBO1 140707Z 23008KT 18/M02 A2998 RMK A01 T01771015  RH  027%=      5-min Rain = 0
KBO1 140708Z 23009KT 18/M02 A2998 RMK A01 T01791016  RH  027%=      5-min Rain = 0
KBO1 140709Z 23009KT 18/M02 A2998 RMK A01 T01801015  RH  027%=      5-min Rain = 0
KBO1 140710Z 23009KT 18/M02 A2998 RMK A01 T01811015  RH  026%=      5-min Rain = 0
KBO1 140711Z 22009KT 18/M02 A2998 RMK A01 T01831016  RH  026%=      5-min Rain = 0
KBO1 140712Z 23009KT 18/M02 A2998 RMK A01 T01841016  RH  026%=      5-min Rain = 0
KBO1 140713Z 22009KT 19/M02 A2998 RMK A01 T01851015  RH  026%=      5-min Rain = 0
KBO1 140714Z 22009KT 19/M02 A2998 RMK A01 T01861016  RH  025%=      5-min Rain = 0
KBO1 140715Z 23010KT 19/M02 A2998 RMK A01 T01871016  RH  025%=      5-min Rain = 0
KBO1 140716Z 23010KT 19/M02 A2998 RMK A01 T01871016  RH  025%=      5-min Rain = 0
KBO1 140717Z 22009KT 19/M02 A2998 RMK A01 T01881016  RH  025%=      5-min Rain = 0
KBO1 140718Z 23009KT 19/M02 A2998 RMK A01 T01901016  RH  025%=      5-min Rain = 0
KBO1 140719Z 22009KT 19/M02 A2998 RMK A01 T01901016  RH  025%=      5-min Rain = 0
KBO1 140720Z 23009KT 19/M02 A2998 RMK A01 T01911016  RH  025%=      5-min Rain = 0
KBO1 140721Z 23010KT 19/M02 A2998 RMK A01 T01911016  RH  025%=      5-min Rain = 0
KBO1 140722Z 23009KT 19/M02 A2998 RMK A01 T01921016  RH  024%=      5-min Rain = 0
KBO1 140723Z 23011KT 19/M02 A2998 RMK A01 T01931016  RH  024%=      5-min Rain = 0
KBO1 140724Z 23011KT 19/M02 A2998 RMK A01 T01941016  RH  024%=      5-min Rain = 0
KBO1 140725Z 23011KT 20/M02 A2998 RMK A01 T01951017  RH  024%=      5-min Rain = 0
KBO1 140726Z 23012KT 20/M02 A2998 RMK A01 T01961017  RH  024%=      5-min Rain = 0
KBO1 140727Z 23012KT 20/M02 A2998 RMK A01 T01981017  RH  023%=      5-min Rain = 0
KBO1 140728Z 23011KT 20/M02 A2998 RMK A01 T01981018  RH  023%=      5-min Rain = 0
KBO1 140729Z 23011KT 20/M02 A2998 RMK A01 T01981018  RH  023%=      5-min Rain = 0
KBO1 140730Z 23011KT 20/M02 A2998 RMK A01 T01981017  RH  023%=      5-min Rain = 0
KBO1 140731Z 23010KT 20/M02 A2998 RMK A01 T01981017  RH  023%=      5-min Rain = 0
KBO1 140732Z 23011KT 20/M02 A2998 RMK A01 T01971018  RH  023%=      5-min Rain = 0
KBO1 140733Z 23011KT 20/M02 A2998 RMK A01 T01971018  RH  023%=      5-min Rain = 0
KBO1 140734Z 23010KT 20/M02 A2998 RMK A01 T01971018  RH  023%=      5-min Rain = 0
KBO1 140735Z 23011KT 20/M02 A2998 RMK A01 T01961019  RH  023%=      5-min Rain = 0
KBO1 140736Z 23012KT 20/M02 A2998 RMK A01 T01961019  RH  023%=      5-min Rain = 0
KBO1 140737Z 23011KT 20/M02 A2998 RMK A01 T01961019  RH  023%=      5-min Rain = 0
KBO1 140738Z 23012KT 20/M02 A2998 RMK A01 T01961020  RH  023%=      5-min Rain = 0
KBO1 140739Z 23011KT 20/M02 A2998 RMK A01 T01961019  RH  023%=      5-min Rain = 0
KBO1 140740Z 23012KT 20/M02 A2997 RMK A01 T01961020  RH  023%=      5-min Rain = 0
KBO1 140741Z 23012KT 20/M02 A2997 RMK A01 T01961020  RH  023%=      5-min Rain = 0
KBO1 140742Z 23012KT 20/M02 A2997 RMK A01 T01961020  RH  023%=      5-min Rain = 0
KBO1 140743Z 23011KT 20/M02 A2997 RMK A01 T01961020  RH  023%=      5-min Rain = 0
KBO1 140744Z 23012KT 20/M02 A2997 RMK A01 T01961020  RH  023%=      5-min Rain = 0
KBO1 140745Z 23010KT 20/M02 A2997 RMK A01 T01961021  RH  023%=      5-min Rain = 0
KBO1 140746Z 23010KT 20/M02 A2997 RMK A01 T01961021  RH  023%=      5-min Rain = 0
KBO1 140747Z 23010KT 20/M02 A2997 RMK A01 T01961020  RH  023%=      5-min Rain = 0
KBO1 140748Z 23010KT 20/M02 A2997 RMK A01 T01961020  RH  023%=      5-min Rain = 0
KBO1 140749Z 23010KT 20/M02 A2997 RMK A01 T01951020  RH  023%=      5-min Rain = 0
KBO1 140750Z 23009KT 19/M02 A2997 RMK A01 T01941020  RH  023%=      5-min Rain = 0
KBO1 140751Z 23009KT 19/M02 A2997 RMK A01 T01931020  RH  024%=      5-min Rain = 0
KBO1 140752Z 23009KT 19/M02 A2997 RMK A01 T01931020  RH  024%=      5-min Rain = 0
KBO1 140753Z 23009KT 19/M02 A2997 RMK A01 T01921020  RH  024%=      5-min Rain = 0
KBO1 140754Z 23009KT 19/M02 A2997 RMK A01 T01921020  RH  024%=      5-min Rain = 0
KBO1 140755Z 23009KT 19/M02 A2997 RMK A01 T01911020  RH  024%=      5-min Rain = 0
KBO1 140756Z 23008KT 19/M02 A2997 RMK A01 T01901020  RH  024%=      5-min Rain = 0
KBO1 140757Z 23008KT 19/M02 A2997 RMK A01 T01901020  RH  024%=      5-min Rain = 0
KBO1 140758Z 23008KT 19/M02 A2997 RMK A01 T01901020  RH  024%=      5-min Rain = 0
KBO1 140759Z 23008KT 19/M02 A2997 RMK A01 T01891020  RH  024%=      5-min Rain = 0
KBO1 140800Z 24008KT 19/M02 A2997 RMK A01 T01891020  RH  024%=      5-min Rain = 0
KBO1 140801Z 24009KT 19/M02 A2997 RMK A01 T01891020  RH  024%=      5-min Rain = 0
KBO1 140802Z 24008KT 19/M02 A2997 RMK A01 T01881020  RH  024%=      5-min Rain = 0
KBO1 140803Z 23008KT 19/M02 A2997 RMK A01 T01881020  RH  024%=      5-min Rain = 0
KBO1 140804Z 24008KT 19/M02 A2997 RMK A01 T01871021  RH  024%=      5-min Rain = 0
KBO1 140805Z 23007KT 19/M02 A2997 RMK A01 T01861020  RH  025%=      5-min Rain = 0
KBO1 140806Z 23008KT 19/M02 A2997 RMK A01 T01861021  RH  025%=      5-min Rain = 0
KBO1 140807Z 23008KT 19/M02 A2997 RMK A01 T01861020  RH  025%=      5-min Rain = 0
KBO1 140808Z 23008KT 19/M02 A2997 RMK A01 T01851021  RH  025%=      5-min Rain = 0
KBO1 140809Z 23008KT 19/M02 A2997 RMK A01 T01851021  RH  025%=      5-min Rain = 0
KBO1 140810Z 23008KT 19/M02 A2997 RMK A01 T01851021  RH  025%=      5-min Rain = 0
KBO1 140811Z 23008KT 18/M02 A2997 RMK A01 T01841021  RH  025%=      5-min Rain = 0
KBO1 140812Z 23008KT 18/M02 A2997 RMK A01 T01841021  RH  025%=      5-min Rain = 0
KBO1 140813Z 23008KT 18/M02 A2997 RMK A01 T01831021  RH  025%=      5-min Rain = 0
KBO1 140814Z 23008KT 18/M02 A2997 RMK A01 T01821021  RH  025%=      5-min Rain = 0
KBO1 140815Z 23008KT 18/M02 A2997 RMK A01 T01821021  RH  025%=      5-min Rain = 0
KBO1 140816Z 23008KT 18/M02 A2997 RMK A01 T01821021  RH  025%=      5-min Rain = 0
KBO1 140817Z 23008KT 18/M02 A2997 RMK A01 T01821021  RH  025%=      5-min Rain = 0
KBO1 140818Z 23008KT 18/M02 A2997 RMK A01 T01821021  RH  025%=      5-min Rain = 0
KBO1 140819Z 23009KT 18/M02 A2997 RMK A01 T01821021  RH  025%=      5-min Rain = 0
KBO1 140820Z 23008KT 18/M02 A2997 RMK A01 T01821021  RH  025%=      5-min Rain = 0
KBO1 140821Z 23009KT 18/M02 A2997 RMK A01 T01821021  RH  025%=      5-min Rain = 0
KBO1 140822Z 23009KT 18/M02 A2997 RMK A01 T01821022  RH  025%=      5-min Rain = 0
KBO1 140823Z 24008KT 18/M02 A2997 RMK A01 T01831021  RH  025%=      5-min Rain = 0
KBO1 140824Z 23009KT 18/M02 A2997 RMK A01 T01821022  RH  025%=      5-min Rain = 0
KBO1 140825Z 23008KT 18/M02 A2997 RMK A01 T01821022  RH  025%=      5-min Rain = 0
KBO1 140826Z 24009KT 18/M02 A2997 RMK A01 T01821021  RH  025%=      5-min Rain = 0
KBO1 140827Z 24009KT 18/M02 A2997 RMK A01 T01821022  RH  025%=      5-min Rain = 0
KBO1 140828Z 24009KT 18/M02 A2997 RMK A01 T01821022  RH  025%=      5-min Rain = 0
KBO1 140829Z 24010KT 18/M02 A2997 RMK A01 T01821021  RH  025%=      5-min Rain = 0
KBO1 140830Z 23011KT 18/M02 A2997 RMK A01 T01821021  RH  025%=      5-min Rain = 0
KBO1 140831Z 24011KT 18/M02 A2997 RMK A01 T01841021  RH  025%=      5-min Rain = 0
KBO1 140832Z 24010KT 19/M02 A2997 RMK A01 T01851021  RH  025%=      5-min Rain = 0
KBO1 140833Z 24011KT 19/M02 A2997 RMK A01 T01861021  RH  025%=      5-min Rain = 0
KBO1 140834Z 23011KT 19/M02 A2997 RMK A01 T01861021  RH  025%=      5-min Rain = 0
KBO1 140835Z 24010KT 19/M02 A2997 RMK A01 T01861021  RH  024%=      5-min Rain = 0
KBO1 140836Z 24011KT 19/M02 A2997 RMK A01 T01871021  RH  024%=      5-min Rain = 0
KBO1 140837Z 24011KT 19/M02 A2997 RMK A01 T01871021  RH  024%=      5-min Rain = 0
KBO1 140838Z 24012KT 19/M02 A2997 RMK A01 T01871021  RH  024%=      5-min Rain = 0
KBO1 140839Z 23012KT 19/M02 A2997 RMK A01 T01871021  RH  024%=      5-min Rain = 0
KBO1 140840Z 24011KT 19/M02 A2997 RMK A01 T01871022  RH  024%=      5-min Rain = 0
KBO1 140841Z 24011KT 19/M02 A2997 RMK A01 T01871022  RH  024%=      5-min Rain = 0
KBO1 140842Z 24010KT 19/M02 A2997 RMK A01 T01861022  RH  024%=      5-min Rain = 0
KBO1 140843Z 24010KT 18/M02 A2997 RMK A01 T01841022  RH  024%=      5-min Rain = 0
KBO1 140844Z 24010KT 18/M02 A2997 RMK A01 T01831022  RH  025%=      5-min Rain = 0
KBO1 140845Z 23010KT 18/M02 A2997 RMK A01 T01811023  RH  025%=      5-min Rain = 0
KBO1 140846Z 24011KT 18/M02 A2997 RMK A01 T01801023  RH  025%=      5-min Rain = 0
KBO1 140847Z 24010KT 18/M02 A2997 RMK A01 T01801023  RH  025%=      5-min Rain = 0
KBO1 140848Z 24010KT 18/M02 A2997 RMK A01 T01791023  RH  025%=      5-min Rain = 0
KBO1 140849Z 24010KT 18/M02 A2997 RMK A01 T01781023  RH  025%=      5-min Rain = 0
KBO1 140850Z 24010KT 18/M02 A2997 RMK A01 T01781023  RH  025%=      5-min Rain = 0
KBO1 140851Z 24010KT 18/M02 A2997 RMK A01 T01771023  RH  025%=      5-min Rain = 0
KBO1 140852Z 24010KT 18/M02 A2997 RMK A01 T01761023  RH  026%=      5-min Rain = 0
KBO1 140853Z 24010KT 18/M02 A2997 RMK A01 T01751023  RH  026%=      5-min Rain = 0
KBO1 140854Z 24009KT 17/M02 A2997 RMK A01 T01731023  RH  026%=      5-min Rain = 0
KBO1 140855Z 24009KT 17/M02 A2997 RMK A01 T01731023  RH  026%=      5-min Rain = 0
KBO1 140856Z 24010KT 17/M02 A2997 RMK A01 T01721023  RH  026%=      5-min Rain = 0
KBO1 140857Z 24010KT 17/M02 A2997 RMK A01 T01711023  RH  027%=      5-min Rain = 0
KBO1 140858Z 24010KT 17/M02 A2997 RMK A01 T01701023  RH  027%=      5-min Rain = 0
KBO1 140859Z 24010KT 17/M02 A2997 RMK A01 T01691023  RH  027%=      5-min Rain = 0
KBO1 140900Z 24010KT 17/M02 A2997 RMK A01 T01681023  RH  027%=      5-min Rain = 0
KBO1 140901Z 24010KT 17/M02 A2997 RMK A01 T01671023  RH  027%=      5-min Rain = 0
KBO1 140902Z 24010KT 17/M02 A2997 RMK A01 T01671023  RH  027%=      5-min Rain = 0
KBO1 140903Z 24011KT 17/M02 A2997 RMK A01 T01671023  RH  027%=      5-min Rain = 0
KBO1 140904Z 24011KT 17/M02 A2997 RMK A01 T01661023  RH  027%=      5-min Rain = 0
KBO1 140905Z 24011KT 17/M02 A2997 RMK A01 T01661023  RH  027%=      5-min Rain = 0
KBO1 140906Z 24011KT 17/M02 A2997 RMK A01 T01661023  RH  027%=      5-min Rain = 0
KBO1 140907Z 24010KT 17/M02 A2997 RMK A01 T01661023  RH  027%=      5-min Rain = 0
KBO1 140908Z 25011KT 17/M02 A2997 RMK A01 T01661023  RH  027%=      5-min Rain = 0
KBO1 140909Z 24011KT 17/M02 A2997 RMK A01 T01671023  RH  027%=      5-min Rain = 0
KBO1 140910Z 25011KT 17/M02 A2997 RMK A01 T01671023  RH  027%=      5-min Rain = 0
KBO1 140911Z 24010KT 17/M02 A2997 RMK A01 T01671023  RH  027%=      5-min Rain = 0
KBO1 140912Z 25011KT 17/M02 A2997 RMK A01 T01671022  RH  027%=      5-min Rain = 0
KBO1 140913Z 24010KT 17/M02 A2997 RMK A01 T01661023  RH  027%=      5-min Rain = 0
KBO1 140914Z 24010KT 17/M02 A2997 RMK A01 T01661022  RH  028%=      5-min Rain = 0
KBO1 140915Z 24010KT 16/M02 A2997 RMK A01 T01641023  RH  028%=      5-min Rain = 0
KBO1 140916Z 24010KT 16/M02 A2997 RMK A01 T01641022  RH  028%=      5-min Rain = 0
KBO1 140917Z 24010KT 16/M02 A2997 RMK A01 T01631023  RH  028%=      5-min Rain = 0
KBO1 140918Z 24010KT 16/M02 A2998 RMK A01 T01631022  RH  028%=      5-min Rain = 0
KBO1 140919Z 24010KT 16/M02 A2998 RMK A01 T01631023  RH  028%=      5-min Rain = 0
KBO1 140920Z 24010KT 16/M02 A2998 RMK A01 T01621023  RH  028%=      5-min Rain = 0
KBO1 140921Z 24010KT 16/M02 A2998 RMK A01 T01621023  RH  028%=      5-min Rain = 0
KBO1 140922Z 24010KT 16/M02 A2998 RMK A01 T01621023  RH  028%=      5-min Rain = 0
KBO1 140923Z 24010KT 16/M02 A2998 RMK A01 T01621023  RH  028%=      5-min Rain = 0
KBO1 140924Z 24011KT 16/M02 A2998 RMK A01 T01611023  RH  028%=      5-min Rain = 0
KBO1 140925Z 24010KT 16/M02 A2998 RMK A01 T01611023  RH  028%=      5-min Rain = 0
KBO1 140926Z 24010KT 16/M02 A2998 RMK A01 T01601023  RH  028%=      5-min Rain = 0
KBO1 140927Z 24011KT 16/M02 A2998 RMK A01 T01601023  RH  028%=      5-min Rain = 0
KBO1 140928Z 24011KT 16/M02 A2998 RMK A01 T01591023  RH  029%=      5-min Rain = 0
KBO1 140929Z 24011KT 16/M02 A2998 RMK A01 T01591023  RH  029%=      5-min Rain = 0
KBO1 140930Z 24011KT 16/M02 A2998 RMK A01 T01591023  RH  029%=      5-min Rain = 0
KBO1 140931Z 24011KT 16/M02 A2998 RMK A01 T01591023  RH  029%=      5-min Rain = 0
KBO1 140932Z 24011KT 16/M02 A2998 RMK A01 T01591023  RH  029%=      5-min Rain = 0
KBO1 140933Z 24011KT 16/M02 A2998 RMK A01 T01581023  RH  029%=      5-min Rain = 0
KBO1 140934Z 24011KT 16/M02 A2998 RMK A01 T01571024  RH  029%=      5-min Rain = 0
KBO1 140935Z 24011KT 16/M02 A2998 RMK A01 T01571024  RH  029%=      5-min Rain = 0
KBO1 140936Z 24010KT 16/M02 A2998 RMK A01 T01581024  RH  029%=      5-min Rain = 0
KBO1 140937Z 24010KT 16/M02 A2998 RMK A01 T01581024  RH  029%=      5-min Rain = 0
KBO1 140938Z 24010KT 16/M02 A2998 RMK A01 T01581024  RH  029%=      5-min Rain = 0
KBO1 140939Z 24010KT 16/M02 A2998 RMK A01 T01571024  RH  029%=      5-min Rain = 0
KBO1 140940Z 24010KT 16/M02 A2998 RMK A01 T01561024  RH  029%=      5-min Rain = 0
KBO1 140941Z 24010KT 16/M02 A2998 RMK A01 T01551024  RH  029%=      5-min Rain = 0
KBO1 140942Z 23009KT 15/M02 A2998 RMK A01 T01541024  RH  029%=      5-min Rain = 0
KBO1 140943Z 23010KT 15/M02 A2998 RMK A01 T01531024  RH  030%=      5-min Rain = 0
KBO1 140944Z 23010KT 15/M02 A2998 RMK A01 T01511024  RH  030%=      5-min Rain = 0
KBO1 140945Z 23009KT 15/M02 A2998 RMK A01 T01491024  RH  030%=      5-min Rain = 0
KBO1 140946Z 23009KT 15/M02 A2998 RMK A01 T01481024  RH  030%=      5-min Rain = 0
KBO1 140947Z 23009KT 15/M02 A2999 RMK A01 T01461024  RH  031%=      5-min Rain = 0
KBO1 140948Z 23009KT 15/M02 A2999 RMK A01 T01451024  RH  031%=      5-min Rain = 0
KBO1 140949Z 23009KT 14/M02 A2999 RMK A01 T01431024  RH  031%=      5-min Rain = 0
KBO1 140950Z 23010KT 14/M02 A2999 RMK A01 T01421024  RH  031%=      5-min Rain = 0
KBO1 140951Z 23010KT 14/M02 A2999 RMK A01 T01411024  RH  032%=      5-min Rain = 0
KBO1 140952Z 23010KT 14/M02 A2999 RMK A01 T01401024  RH  032%=      5-min Rain = 0
KBO1 140953Z 23009KT 14/M02 A2999 RMK A01 T01391024  RH  032%=      5-min Rain = 0
KBO1 140954Z 23010KT 14/M03 A2999 RMK A01 T01371025  RH  033%=      5-min Rain = 0
KBO1 140955Z 23010KT 14/M02 A2999 RMK A01 T01361024  RH  033%=      5-min Rain = 0
KBO1 140956Z 23010KT 13/M03 A2999 RMK A01 T01341025  RH  033%=      5-min Rain = 0
KBO1 140957Z 23011KT 13/M03 A2999 RMK A01 T01331025  RH  033%=      5-min Rain = 0
KBO1 140958Z 23010KT 13/M03 A2999 RMK A01 T01321025  RH  033%=      5-min Rain = 0
KBO1 140959Z 22010KT 13/M03 A2999 RMK A01 T01321025  RH  034%=      5-min Rain = 0
KBO1 141000Z 22010KT 13/M03 A2999 RMK A01 T01301026  RH  034%=      5-min Rain = 0
KBO1 141001Z 22010KT 13/M03 A2999 RMK A01 T01301026  RH  034%=      5-min Rain = 0
KBO1 141002Z 22010KT 13/M03 A2999 RMK A01 T01291026  RH  034%=      5-min Rain = 0
KBO1 141003Z 22010KT 13/M03 A2999 RMK A01 T01281026  RH  034%=      5-min Rain = 0
KBO1 141004Z 22010KT 13/M03 A2999 RMK A01 T01281026  RH  034%=      5-min Rain = 0
KBO1 141005Z 22009KT 13/M03 A2999 RMK A01 T01301025  RH  034%=      5-min Rain = 0
KBO1 141006Z 22009KT 13/M03 A2999 RMK A01 T01311025  RH  034%=      5-min Rain = 0
KBO1 141007Z 22009KT 13/M03 A2999 RMK A01 T01311025  RH  034%=      5-min Rain = 0
KBO1 141008Z 22009KT 13/M03 A2999 RMK A01 T01311025  RH  034%=      5-min Rain = 0
KBO1 141009Z 22009KT 13/M03 A2999 RMK A01 T01321025  RH  034%=      5-min Rain = 0
KBO1 141010Z 21009KT 13/M02 A2999 RMK A01 T01311024  RH  034%=      5-min Rain = 0
KBO1 141011Z 21009KT 13/M03 A2999 RMK A01 T01311025  RH  034%=      5-min Rain = 0
KBO1 141012Z 21009KT 13/M03 A2999 RMK A01 T01301025  RH  034%=      5-min Rain = 0
KBO1 141013Z 21009KT 13/M02 A2999 RMK A01 T01301024  RH  034%=      5-min Rain = 0
KBO1 141014Z 21009KT 13/M02 A2999 RMK A01 T01291024  RH  034%=      5-min Rain = 0
KBO1 141015Z 20009KT 13/M02 A30 RMK A01 T01291023  RH  035%=      5-min Rain = 0
KBO1 141016Z 20009KT 13/M02 A30 RMK A01 T01291024  RH  035%=      5-min Rain = 0
KBO1 141017Z 19009KT 13/M02 A30 RMK A01 T01281024  RH  035%=      5-min Rain = 0
KBO1 141018Z 19010KT 13/M02 A30 RMK A01 T01271024  RH  035%=      5-min Rain = 0
KBO1 141019Z 19010KT 13/M03 A30 RMK A01 T01251025  RH  035%=      5-min Rain = 0
KBO1 141020Z 20011KT 13/M02 A30 RMK A01 T01251024  RH  035%=      5-min Rain = 0
KBO1 141021Z 19011KT 13/M02 A30 RMK A01 T01251024  RH  035%=      5-min Rain = 0
KBO1 141022Z 20011KT 13/M02 A30 RMK A01 T01261024  RH  035%=      5-min Rain = 0
KBO1 141023Z 20010KT 13/M02 A30 RMK A01 T01281023  RH  035%=      5-min Rain = 0
KBO1 141024Z 20009KT 13/M02 A30 RMK A01 T01301023  RH  034%=      5-min Rain = 0
KBO1 141025Z 20009KT 13/M02 A30 RMK A01 T01311023  RH  034%=      5-min Rain = 0
KBO1 141026Z 20008KT 13/M02 A30 RMK A01 T01331022  RH  034%=      5-min Rain = 0
KBO1 141027Z 20008KT 13/M02 A30 RMK A01 T01331022  RH  034%=      5-min Rain = 0
KBO1 141028Z 20009KT 13/M02 A30 RMK A01 T01341022  RH  034%=      5-min Rain = 0
KBO1 141029Z 20009KT 13/M02 A30 RMK A01 T01341022  RH  034%=      5-min Rain = 0
KBO1 141030Z 20008KT 14/M02 A30 RMK A01 T01351022  RH  034%=      5-min Rain = 0
KBO1 141031Z 20008KT 14/M02 A30 RMK A01 T01351022  RH  034%=      5-min Rain = 0
KBO1 141032Z 21009KT 14/M02 A30 RMK A01 T01351022  RH  034%=      5-min Rain = 0
KBO1 141033Z 21009KT 14/M02 A30 RMK A01 T01351022  RH  034%=      5-min Rain = 0
KBO1 141034Z 21009KT 14/M02 A30 RMK A01 T01351022  RH  034%=      5-min Rain = 0
KBO1 141035Z 21009KT 14/M02 A30 RMK A01 T01351022  RH  034%=      5-min Rain = 0
KBO1 141036Z 21009KT 14/M02 A30 RMK A01 T01351022  RH  034%=      5-min Rain = 0
KBO1 141037Z 21008KT 14/M02 A30 RMK A01 T01351022  RH  034%=      5-min Rain = 0
KBO1 141038Z 21009KT 14/M02 A30 RMK A01 T01351022  RH  034%=      5-min Rain = 0
KBO1 141039Z 21009KT 13/M02 A30 RMK A01 T01341022  RH  034%=      5-min Rain = 0
KBO1 141040Z 21009KT 14/M02 A30 RMK A01 T01351022  RH  034%=      5-min Rain = 0
KBO1 141041Z 21009KT 14/M02 A30 RMK A01 T01351022  RH  034%=      5-min Rain = 0
KBO1 141042Z 22009KT 14/M02 A30 RMK A01 T01351022  RH  034%=      5-min Rain = 0
KBO1 141043Z 22009KT 14/M02 A30 RMK A01 T01351022  RH  034%=      5-min Rain = 0
KBO1 141044Z 22009KT 13/M02 A30 RMK A01 T01341022  RH  034%=      5-min Rain = 0
KBO1 141045Z 22009KT 13/M02 A30 RMK A01 T01341022  RH  034%=      5-min Rain = 0
KBO1 141046Z 22010KT 13/M02 A30 RMK A01 T01341022  RH  034%=      5-min Rain = 0
KBO1 141047Z 22010KT 14/M02 A30 RMK A01 T01351022  RH  034%=      5-min Rain = 0
KBO1 141048Z 22009KT 14/M02 A30 RMK A01 T01361022  RH  033%=      5-min Rain = 0
KBO1 141049Z 22009KT 14/M02 A30 RMK A01 T01371022  RH  033%=      5-min Rain = 0
KBO1 141050Z 22010KT 14/M02 A30 RMK A01 T01371022  RH  033%=      5-min Rain = 0
KBO1 141051Z 22010KT 14/M02 A30 RMK A01 T01361022  RH  033%=      5-min Rain = 0
KBO1 141052Z 22010KT 14/M02 A30 RMK A01 T01351022  RH  034%=      5-min Rain = 0
KBO1 141053Z 22011KT 13/M02 A30 RMK A01 T01331022  RH  034%=      5-min Rain = 0
KBO1 141054Z 22010KT 13/M02 A30 RMK A01 T01321022  RH  034%=      5-min Rain = 0
KBO1 141055Z 22010KT 13/M02 A30 RMK A01 T01321022  RH  034%=      5-min Rain = 0
KBO1 141056Z 22010KT 13/M02 A30 RMK A01 T01311022  RH  034%=      5-min Rain = 0
KBO1 141057Z 22010KT 13/M02 A30 RMK A01 T01311022  RH  035%=      5-min Rain = 0
KBO1 141058Z 22010KT 13/M02 A30 RMK A01 T01291022  RH  035%=      5-min Rain = 0
KBO1 141059Z 22010KT 13/M02 A30 RMK A01 T01281022  RH  035%=      5-min Rain = 0
KBO1 141100Z 22010KT 13/M02 A30 RMK A01 T01261022  RH  036%=      5-min Rain = 0
KBO1 141101Z 23011KT 13/M02 A30 RMK A01 T01251022  RH  036%=      5-min Rain = 0
KBO1 141102Z 23010KT 12/M02 A30 RMK A01 T01241022  RH  036%=      5-min Rain = 0
KBO1 141103Z 23010KT 12/M02 A30 RMK A01 T01241022  RH  036%=      5-min Rain = 0
KBO1 141104Z 23010KT 12/M02 A30 RMK A01 T01241022  RH  036%=      5-min Rain = 0
KBO1 141105Z 23010KT 12/M02 A30 RMK A01 T01241021  RH  037%=      5-min Rain = 0
KBO1 141106Z 23010KT 12/M02 A30 RMK A01 T01241020  RH  037%=      5-min Rain = 0
KBO1 141107Z 23010KT 12/M02 A30 RMK A01 T01231020  RH  037%=      5-min Rain = 0
KBO1 141108Z 23010KT 12/M02 A30 RMK A01 T01241020  RH  037%=      5-min Rain = 0
KBO1 141109Z 23010KT 13/M02 A30 RMK A01 T01251019  RH  037%=      5-min Rain = 0
KBO1 141110Z 23009KT 13/M02 A30 RMK A01 T01261019  RH  036%=      5-min Rain = 0
KBO1 141111Z 22010KT 13/M02 A30 RMK A01 T01271019  RH  036%=      5-min Rain = 0
KBO1 141112Z 22011KT 13/M02 A30 RMK A01 T01271019  RH  036%=      5-min Rain = 0
KBO1 141113Z 22011KT 13/M02 A30 RMK A01 T01261019  RH  037%=      5-min Rain = 0
KBO1 141114Z 22012KT 13/M02 A30 RMK A01 T01251019  RH  037%=      5-min Rain = 0
KBO1 141115Z 21013KT 12/M02 A30 RMK A01 T01241019  RH  037%=      5-min Rain = 0
KBO1 141116Z 21014KT 12/M02 A30 RMK A01 T01241020  RH  037%=      5-min Rain = 0
KBO1 141117Z 22012KT 12/M02 A30 RMK A01 T01241020  RH  037%=      5-min Rain = 0
KBO1 141118Z 23010KT 13/M02 A30 RMK A01 T01251020  RH  037%=      5-min Rain = 0
KBO1 141119Z 23010KT 13/M02 A30 RMK A01 T01271020  RH  036%=      5-min Rain = 0
KBO1 141120Z 22010KT 13/M02 A30 RMK A01 T01281020  RH  036%=      5-min Rain = 0
KBO1 141121Z 21010KT 13/M02 A30 RMK A01 T01291020  RH  036%=      5-min Rain = 0
KBO1 141122Z 21010KT 13/M02 A30 RMK A01 T01271020  RH  036%=      5-min Rain = 0
KBO1 141123Z 21010KT 13/M02 A30 RMK A01 T01251019  RH  037%=      5-min Rain = 0
KBO1 141124Z 21010KT 12/M02 A30 RMK A01 T01241019  RH  037%=      5-min Rain = 0
KBO1 141125Z 21010KT 12/M02 A30 RMK A01 T01231019  RH  037%=      5-min Rain = 0
KBO1 141126Z 22010KT 12/M02 A30 RMK A01 T01231019  RH  037%=      5-min Rain = 0
KBO1 141127Z 22010KT 12/M02 A30 RMK A01 T01231019  RH  037%=      5-min Rain = 0
KBO1 141128Z 22009KT 12/M02 A30 RMK A01 T01231019  RH  037%=      5-min Rain = 0
KBO1 141129Z 22009KT 12/M02 A30 RMK A01 T01221019  RH  037%=      5-min Rain = 0
KBO1 141130Z 22009KT 12/M02 A30 RMK A01 T01211019  RH  038%=      5-min Rain = 0
KBO1 141131Z 22009KT 12/M02 A30 RMK A01 T01211019  RH  038%=      5-min Rain = 0
KBO1 141132Z 22009KT 12/M02 A30 RMK A01 T01191019  RH  038%=      5-min Rain = 0
KBO1 141133Z 23009KT 12/M02 A3001 RMK A01 T01191019  RH  038%=      5-min Rain = 0
KBO1 141134Z 22009KT 12/M02 A3001 RMK A01 T01181019  RH  039%=      5-min Rain = 0
KBO1 141135Z 22009KT 12/M02 A30 RMK A01 T01171019  RH  039%=      5-min Rain = 0
KBO1 141136Z 22010KT 12/M02 A30 RMK A01 T01171019  RH  039%=      5-min Rain = 0
KBO1 141137Z 22009KT 12/M02 A30 RMK A01 T01171019  RH  039%=      5-min Rain = 0
KBO1 141138Z 22009KT 12/M02 A3001 RMK A01 T01171019  RH  039%=      5-min Rain = 0
KBO1 141139Z 22009KT 12/M02 A3001 RMK A01 T01161019  RH  039%=      5-min Rain = 0
KBO1 141140Z 22008KT 12/M02 A3001 RMK A01 T01161019  RH  039%=      5-min Rain = 0
KBO1 141141Z 22008KT 12/M02 A3001 RMK A01 T01151019  RH  039%=      5-min Rain = 0
KBO1 141142Z 22008KT 12/M02 A3001 RMK A01 T01151019  RH  039%=      5-min Rain = 0
KBO1 141143Z 22008KT 11/M02 A3001 RMK A01 T01141019  RH  039%=      5-min Rain = 0
KBO1 141144Z 22008KT 11/M02 A3001 RMK A01 T01131020  RH  040%=      5-min Rain = 0
KBO1 141145Z 23008KT 11/M02 A3001 RMK A01 T01121020  RH  040%=      5-min Rain = 0
KBO1 141146Z 23008KT 11/M02 A3001 RMK A01 T01111020  RH  040%=      5-min Rain = 0
KBO1 141147Z 23008KT 11/M02 A3001 RMK A01 T01101020  RH  040%=      5-min Rain = 0
KBO1 141148Z 23008KT 11/M02 A3001 RMK A01 T01101020  RH  040%=      5-min Rain = 0
KBO1 141149Z 23009KT 11/M02 A3001 RMK A01 T01101020  RH  040%=      5-min Rain = 0
KBO1 141150Z 23009KT 11/M02 A3001 RMK A01 T01101021  RH  040%=      5-min Rain = 0
KBO1 141151Z 23008KT 11/M02 A3001 RMK A01 T01101021  RH  040%=      5-min Rain = 0
KBO1 141152Z 23009KT 11/M02 A3001 RMK A01 T01101021  RH  040%=      5-min Rain = 0
KBO1 141153Z 23009KT 11/M02 A3001 RMK A01 T01101020  RH  040%=      5-min Rain = 0
KBO1 141154Z 23010KT 11/M02 A3001 RMK A01 T01091021  RH  040%=      5-min Rain = 0
KBO1 141155Z 23010KT 11/M02 A3001 RMK A01 T01091021  RH  040%=      5-min Rain = 0
KBO1 141156Z 23009KT 11/M02 A3001 RMK A01 T01091020  RH  040%=      5-min Rain = 0
KBO1 141157Z 23009KT 11/M02 A3001 RMK A01 T01091020  RH  041%=      5-min Rain = 0
KBO1 141158Z 23010KT 11/M02 A3001 RMK A01 T01081020  RH  041%=      5-min Rain = 0
KBO1 141159Z 23011KT 11/M02 A3001 RMK A01 T01081019  RH  041%=      5-min Rain = 0
KBO1 141200Z 23011KT 11/M02 A3001 RMK A01 T01081019  RH  041%=      5-min Rain = 0
KBO1 141201Z 23010KT 11/M02 A3002 RMK A01 T01081018  RH  041%=      5-min Rain = 0
KBO1 141202Z 23010KT 11/M02 A3002 RMK A01 T01091018  RH  041%=      5-min Rain = 0
KBO1 141203Z 23010KT 11/M02 A3002 RMK A01 T01091018  RH  041%=      5-min Rain = 0
KBO1 141204Z 22010KT 11/M02 A3002 RMK A01 T01081018  RH  041%=      5-min Rain = 0
KBO1 141205Z 21009KT 11/M02 A3002 RMK A01 T01081017  RH  042%=      5-min Rain = 0
KBO1 141206Z 20009KT 11/M02 A3002 RMK A01 T01071018  RH  042%=      5-min Rain = 0
KBO1 141207Z 22010KT 10/M02 A3002 RMK A01 T01041019  RH  042%=      5-min Rain = 0
KBO1 141208Z 21010KT 10/M02 A3002 RMK A01 T01041019  RH  042%=      5-min Rain = 0
KBO1 141209Z 21010KT 11/M02 A3002 RMK A01 T01061018  RH  042%=      5-min Rain = 0
KBO1 141210Z 22010KT 11/M02 A3002 RMK A01 T01071018  RH  042%=      5-min Rain = 0
KBO1 141211Z 22010KT 11/M02 A3002 RMK A01 T01091017  RH  041%=      5-min Rain = 0
KBO1 141212Z 22009KT 11/M02 A3002 RMK A01 T01111017  RH  041%=      5-min Rain = 0
KBO1 141213Z 22010KT 11/M02 A3002 RMK A01 T01101017  RH  041%=      5-min Rain = 0
KBO1 141214Z 22010KT 11/M02 A3002 RMK A01 T01091017  RH  041%=      5-min Rain = 0
KBO1 141215Z 22010KT 11/M02 A3002 RMK A01 T01091017  RH  041%=      5-min Rain = 0
KBO1 141216Z 22011KT 11/M02 A3002 RMK A01 T01091017  RH  041%=      5-min Rain = 0
KBO1 141217Z 22011KT 11/M02 A3002 RMK A01 T01101017  RH  041%=      5-min Rain = 0
KBO1 141218Z 22011KT 11/M02 A3002 RMK A01 T01111016  RH  041%=      5-min Rain = 0
KBO1 141219Z 21011KT 11/M02 A3002 RMK A01 T01131015  RH  041%=      5-min Rain = 0
KBO1 141220Z 22011KT 11/M02 A3002 RMK A01 T01131015  RH  041%=      5-min Rain = 0
KBO1 141221Z 22011KT 11/M02 A3002 RMK A01 T01141015  RH  041%=      5-min Rain = 0
KBO1 141222Z 22011KT 12/M01 A3002 RMK A01 T01171014  RH  040%=      5-min Rain = 0
KBO1 141223Z 22011KT 12/M01 A3002 RMK A01 T01191014  RH  040%=      5-min Rain = 0
KBO1 141224Z 22010KT 12/M01 A3002 RMK A01 T01221014  RH  039%=      5-min Rain = 0
KBO1 141225Z 22009KT 12/M01 A3002 RMK A01 T01231014  RH  039%=      5-min Rain = 0
KBO1 141226Z 22010KT 12/M01 A3003 RMK A01 T01231013  RH  039%=      5-min Rain = 0
KBO1 141227Z 23009KT 12/M01 A3003 RMK A01 T01231014  RH  039%=      5-min Rain = 0
KBO1 141228Z 23010KT 12/M01 A3003 RMK A01 T01231014  RH  039%=      5-min Rain = 0
KBO1 141229Z 24009KT 12/M01 A3003 RMK A01 T01221014  RH  039%=      5-min Rain = 0
KBO1 141230Z 23009KT 12/M01 A3003 RMK A01 T01211014  RH  039%=      5-min Rain = 0
KBO1 141231Z 23009KT 12/M01 A3003 RMK A01 T01211014  RH  039%=      5-min Rain = 0
KBO1 141232Z 23009KT 12/M01 A3003 RMK A01 T01201013  RH  039%=      5-min Rain = 0
KBO1 141233Z 22009KT 12/M01 A3003 RMK A01 T01201013  RH  040%=      5-min Rain = 0
KBO1 141234Z 22009KT 12/M01 A3003 RMK A01 T01201013  RH  040%=      5-min Rain = 0
KBO1 141235Z 22010KT 12/M01 A3003 RMK A01 T01201013  RH  040%=      5-min Rain = 0
KBO1 141236Z 23009KT 12/M01 A3003 RMK A01 T01221011  RH  040%=      5-min Rain = 0
KBO1 141237Z 23009KT 12/M01 A3003 RMK A01 T01241011  RH  039%=      5-min Rain = 0
KBO1 141238Z 22009KT 13/M01 A3003 RMK A01 T01261010  RH  039%=      5-min Rain = 0
KBO1 141239Z 22009KT 13/M01 A3003 RMK A01 T01281009  RH  039%=      5-min Rain = 0
KBO1 141240Z 22009KT 13/M01 A3003 RMK A01 T01291009  RH  038%=      5-min Rain = 0
KBO1 141241Z 22009KT 13/M01 A3003 RMK A01 T01311009  RH  038%=      5-min Rain = 0
KBO1 141242Z 22009KT 13/M01 A3003 RMK A01 T01331009  RH  038%=      5-min Rain = 0
KBO1 141243Z 23009KT 13/M01 A3003 RMK A01 T01341009  RH  037%=      5-min Rain = 0
KBO1 141244Z 23008KT 14/M01 A3003 RMK A01 T01361008  RH  037%=      5-min Rain = 0
KBO1 141245Z 23008KT 14/M01 A3003 RMK A01 T01381009  RH  036%=      5-min Rain = 0
KBO1 141246Z 23008KT 14/M01 A3003 RMK A01 T01401008  RH  036%=      5-min Rain = 0
KBO1 141247Z 23009KT 14/M01 A3003 RMK A01 T01421008  RH  036%=      5-min Rain = 0
KBO1 141248Z 23009KT 14/M01 A3003 RMK A01 T01441007  RH  035%=      5-min Rain = 0
KBO1 141249Z 24009KT 15/M01 A3003 RMK A01 T01471006  RH  035%=      5-min Rain = 0
KBO1 141250Z 24009KT 15/M01 A3003 RMK A01 T01491006  RH  035%=      5-min Rain = 0
KBO1 141251Z 24009KT 15/M01 A3003 RMK A01 T01531005  RH  034%=      5-min Rain = 0
KBO1 141252Z 24009KT 16/M01 A3003 RMK A01 T01551006  RH  033%=      5-min Rain = 0
KBO1 141253Z 24011KT 16/M01 A3003 RMK A01 T01581006  RH  033%=      5-min Rain = 0
KBO1 141254Z 24010KT 16/M01 A3003 RMK A01 T01611007  RH  032%=      5-min Rain = 0
KBO1 141255Z 24011KT 16/M01 A3003 RMK A01 T01631007  RH  031%=      5-min Rain = 0
KBO1 141256Z 24010KT 17/M01 A3003 RMK A01 T01661007  RH  031%=      5-min Rain = 0
KBO1 141257Z 24012KT 17/M01 A3003 RMK A01 T01691007  RH  030%=      5-min Rain = 0
KBO1 141258Z 24011KT 17/M01 A3003 RMK A01 T01711008  RH  030%=      5-min Rain = 0
KBO1 141259Z 24012KT 17/M01 A3003 RMK A01 T01731008  RH  029%=      5-min Rain = 0
KBO1 141300Z 24012KT 18/M01 A3003 RMK A01 T01751008  RH  029%=      5-min Rain = 0
KBO1 141301Z 24012KT 18/M01 A3003 RMK A01 T01761008  RH  029%=      5-min Rain = 0
KBO1 141302Z 24011KT 18/M01 A3003 RMK A01 T01771008  RH  028%=      5-min Rain = 0
KBO1 141303Z 24011KT 18/M01 A3003 RMK A01 T01781008  RH  028%=      5-min Rain = 0
KBO1 141304Z 24011KT 18/M01 A3003 RMK A01 T01801007  RH  028%=      5-min Rain = 0
KBO1 141305Z 24012KT 18/M01 A3003 RMK A01 T01801008  RH  028%=      5-min Rain = 0
KBO1 141306Z 24012KT 18/M01 A3003 RMK A01 T01821008  RH  028%=      5-min Rain = 0
KBO1 141307Z 24012KT 18/M01 A3003 RMK A01 T01831008  RH  027%=      5-min Rain = 0
KBO1 141308Z 24012KT 18/M01 A3003 RMK A01 T01841008  RH  027%=      5-min Rain = 0
KBO1 141309Z 23012KT 19/M01 A3003 RMK A01 T01851009  RH  027%=      5-min Rain = 0
KBO1 141310Z 24012KT 19/M01 A3003 RMK A01 T01861008  RH  027%=      5-min Rain = 0
KBO1 141311Z 24011KT 19/M01 A3003 RMK A01 T01861008  RH  027%=      5-min Rain = 0
KBO1 141312Z 24014KT 19/M01 A3003 RMK A01 T01871008  RH  027%=      5-min Rain = 0
KBO1 141313Z 24012KT 19/M01 A3003 RMK A01 T01871010  RH  026%=      5-min Rain = 0
KBO1 141314Z 23010KT 19/M01 A3003 RMK A01 T01881009  RH  026%=      5-min Rain = 0
KBO1 141315Z 24011KT 19/M01 A3003 RMK A01 T01891008  RH  027%=      5-min Rain = 0
KBO1 141316Z 24010KT 19/M01 A3003 RMK A01 T01901008  RH  026%=      5-min Rain = 0
KBO1 141317Z 24010KT 19/M01 A3003 RMK A01 T01911007  RH  026%=      5-min Rain = 0
KBO1 141318Z 24013KT 19/M01 A3003 RMK A01 T01921008  RH  026%=      5-min Rain = 0
KBO1 141319Z 24013KT 19/M01 A3003 RMK A01 T01921009  RH  026%=      5-min Rain = 0
KBO1 141320Z 24011KT 19/M01 A3003 RMK A01 T01931009  RH  026%=      5-min Rain = 0
KBO1 141321Z 24012KT 19/M01 A3003 RMK A01 T01931009  RH  026%=      5-min Rain = 0
KBO1 141322Z 24011KT 19/M01 A3003 RMK A01 T01941009  RH  025%=      5-min Rain = 0
KBO1 141323Z 24012KT 20/M01 A3003 RMK A01 T01961008  RH  025%=      5-min Rain = 0
KBO1 141324Z 24011KT 20/M01 A3003 RMK A01 T01971008  RH  025%=      5-min Rain = 0
KBO1 141325Z 24012KT 20/M01 A3003 RMK A01 T01981009  RH  025%=      5-min Rain = 0
KBO1 141326Z 24012KT 20/M01 A3003 RMK A01 T01991009  RH  025%=      5-min Rain = 0
KBO1 141327Z 24013KT 20/M01 A3003 RMK A01 T02001009  RH  025%=      5-min Rain = 0
KBO1 141328Z 24011KT 20/M01 A3003 RMK A01 T02011009  RH  024%=      5-min Rain = 0
KBO1 141329Z 24014KT 20/M01 A3003 RMK A01 T02011009  RH  024%=      5-min Rain = 0
KBO1 141330Z 24013KT 20/M01 A3003 RMK A01 T02011009  RH  024%=      5-min Rain = 0
KBO1 141331Z 24013KT 20/M01 A3003 RMK A01 T02021008  RH  024%=      5-min Rain = 0
KBO1 141332Z 24012KT 20/M01 A3003 RMK A01 T02031007  RH  024%=      5-min Rain = 0
KBO1 141333Z 24012KT 20/M01 A3003 RMK A01 T02041006  RH  024%=      5-min Rain = 0
KBO1 141334Z 24014KT 21/M01 A3003 RMK A01 T02051008  RH  024%=      5-min Rain = 0
KBO1 141335Z 24012KT 21/M01 A3003 RMK A01 T02061008  RH  024%=      5-min Rain = 0
KBO1 141336Z 24011KT 21/M01 A3003 RMK A01 T02071007  RH  024%=      5-min Rain = 0
KBO1 141337Z 24010KT 21/M01 A3003 RMK A01 T02091005  RH  024%=      5-min Rain = 0
KBO1 141338Z 24010KT 21/M00 A3003 RMK A01 T02101004  RH  024%=      5-min Rain = 0
KBO1 141339Z 24010KT 21/M00 A3004 RMK A01 T02111002  RH  024%=      5-min Rain = 0
KBO1 141340Z 24010KT 21/M00 A3004 RMK A01 T02121003  RH  024%=      5-min Rain = 0
KBO1 141341Z 24011KT 21/M00 A3004 RMK A01 T02141004  RH  023%=      5-min Rain = 0
KBO1 141342Z 24011KT 22/M00 A3004 RMK A01 T02151002  RH  023%=      5-min Rain = 0
KBO1 141343Z 25013KT 22/M00 A3004 RMK A01 T02161004  RH  023%=      5-min Rain = 0
KBO1 141344Z 25012KT 22/M00 A3004 RMK A01 T02171004  RH  023%=      5-min Rain = 0
KBO1 141345Z 25012KT 22/M01 A3004 RMK A01 T02181005  RH  023%=      5-min Rain = 0
KBO1 141346Z 25013KT 22/M01 A3004 RMK A01 T02181005  RH  023%=      5-min Rain = 0
KBO1 141347Z 25013KT 22/M01 A3004 RMK A01 T02181005  RH  023%=      5-min Rain = 0
KBO1 141348Z 25014KT 22/M01 A3004 RMK A01 T02191007  RH  022%=      5-min Rain = 0
KBO1 141349Z 25015KT 22/M01 A3004 RMK A01 T02191008  RH  022%=      5-min Rain = 0
KBO1 141350Z 25015KT 22/M01 A3004 RMK A01 T02191009  RH  022%=      5-min Rain = 0
KBO1 141351Z 25015KT 22/M01 A3004 RMK A01 T02181009  RH  022%=      5-min Rain = 0
KBO1 141352Z 25014KT 22/M01 A3004 RMK A01 T02191010  RH  022%=      5-min Rain = 0
KBO1 141353Z 25012KT 22/M01 A3004 RMK A01 T02201008  RH  022%=      5-min Rain = 0
KBO1 141354Z 24013KT 22/M01 A3004 RMK A01 T02221007  RH  022%=      5-min Rain = 0
KBO1 141355Z 25013KT 22/M01 A3004 RMK A01 T02231007  RH  021%=      5-min Rain = 0
KBO1 141356Z 25011KT 23/M01 A3004 RMK A01 T02251006  RH  022%=      5-min Rain = 0
KBO1 141357Z 25009KT 23/M00 A3004 RMK A01 T02271003  RH  022%=      5-min Rain = 0
KBO1 141358Z 25011KT 23/M00 A3004 RMK A01 T02291001  RH  022%=      5-min Rain = 0
KBO1 141359Z 25012KT 23/M00 A3004 RMK A01 T02311001  RH  021%=      5-min Rain = 0
KBO1 141400Z 24014KT 23/M00 A3004 RMK A01 T02311004  RH  021%=      5-min Rain = 0
KBO1 141401Z 25016KT 23/M01 A3004 RMK A01 T02301006  RH  021%=      5-min Rain = 0
KBO1 141402Z 24016KT 23/M01 A3004 RMK A01 T02291007  RH  021%=      5-min Rain = 0
KBO1 141403Z 25014KT 23/M01 A3004 RMK A01 T02281007  RH  021%=      5-min Rain = 0
KBO1 141404Z 25015KT 23/M01 A3005 RMK A01 T02281007  RH  021%=      5-min Rain = 0
KBO1 141405Z 25016KT 23/M01 A3005 RMK A01 T02291007  RH  021%=      5-min Rain = 0
KBO1 141406Z 24017KT 23/M01 A3005 RMK A01 T02291007  RH  021%=      5-min Rain = 0
KBO1 141407Z 24015KT 23/M01 A3005 RMK A01 T02291008  RH  021%=      5-min Rain = 0
KBO1 141408Z 24014KT 23/M01 A3005 RMK A01 T02291007  RH  021%=      5-min Rain = 0
KBO1 141409Z 24014KT 23/M01 A3005 RMK A01 T02311006  RH  021%=      5-min Rain = 0
KBO1 141410Z 24014KT 23/M00 A3005 RMK A01 T02331004  RH  021%=      5-min Rain = 0
KBO1 141411Z 24015KT 24/M01 A3005 RMK A01 T02351006  RH  020%=      5-min Rain = 0
KBO1 141412Z 24017KT 24/M01 A3005 RMK A01 T02351007  RH  020%=      5-min Rain = 0
KBO1 141413Z 24016KT 23/M01 A3005 RMK A01 T02341009  RH  020%=      5-min Rain = 0
KBO1 141414Z 24017KT 23/M01 A3005 RMK A01 T02341008  RH  020%=      5-min Rain = 0
KBO1 141415Z 25016KT 24/M01 A3005 RMK A01 T02351007  RH  020%=      5-min Rain = 0
KBO1 141416Z 24015KT 24/M01 A3005 RMK A01 T02361006  RH  020%=      5-min Rain = 0
KBO1 141417Z 24015KT 24/M01 A3005 RMK A01 T02381006  RH  020%=      5-min Rain = 0
KBO1 141418Z 24015KT 24/M01 A3005 RMK A01 T02391007  RH  020%=      5-min Rain = 0
KBO1 141419Z 23014KT 24/M01 A3005 RMK A01 T02391006  RH  020%=      5-min Rain = 0
KBO1 141420Z 24016KT 24/M01 A3005 RMK A01 T02411006  RH  019%=      5-min Rain = 0
KBO1 141421Z 25015KT 24/M01 A3005 RMK A01 T02411006  RH  019%=      5-min Rain = 0
KBO1 141422Z 24015KT 24/M01 A3005 RMK A01 T02431006  RH  019%=      5-min Rain = 0
KBO1 141423Z 24017KT 24/M01 A3005 RMK A01 T02431008  RH  019%=      5-min Rain = 0
KBO1 141424Z 24016KT 24/M01 A3005 RMK A01 T02421010  RH  019%=      5-min Rain = 0
KBO1 141425Z 24017KT 24/M01 A3005 RMK A01 T02421009  RH  019%=      5-min Rain = 0
KBO1 141426Z 25015KT 24/M01 A3005 RMK A01 T02421010  RH  019%=      5-min Rain = 0
KBO1 141427Z 24015KT 24/M01 A3005 RMK A01 T02441008  RH  019%=      5-min Rain = 0
KBO1 141428Z 24013KT 25/M01 A3005 RMK A01 T02451009  RH  019%=      5-min Rain = 0
KBO1 141429Z 24013KT 25/M01 A3005 RMK A01 T02461008  RH  019%=      5-min Rain = 0
KBO1 141430Z 24014KT 25/M01 A3005 RMK A01 T02481008  RH  018%=      5-min Rain = 0
KBO1 141431Z 24014KT 25/M01 A3005 RMK A01 T02481011  RH  018%=      5-min Rain = 0
KBO1 141432Z 23015KT 25/M01 A3005 RMK A01 T02481010  RH  018%=      5-min Rain = 0
KBO1 141433Z 24013KT 25/M01 A3005 RMK A01 T02491009  RH  018%=      5-min Rain = 0
KBO1 141434Z 24015KT 25/M01 A3005 RMK A01 T02511008  RH  018%=      5-min Rain = 0
KBO1 141435Z 24012KT 25/M01 A3005 RMK A01 T02511007  RH  018%=      5-min Rain = 0
KBO1 141436Z 23014KT 25/M01 A3005 RMK A01 T02521007  RH  018%=      5-min Rain = 0
KBO1 141437Z 24013KT 26/M01 A3005 RMK A01 T02551005  RH  018%=      5-min Rain = 0
KBO1 141438Z 24014KT 26/M01 A3005 RMK A01 T02561010  RH  017%=      5-min Rain = 0
KBO1 141439Z 23014KT 25/M01 A3005 RMK A01 T02541009  RH  018%=      5-min Rain = 0
KBO1 141440Z 23017KT 25/M01 A3005 RMK A01 T02541014  RH  017%=      5-min Rain = 0
KBO1 141441Z 24015KT 25/M02 A3005 RMK A01 T02541015  RH  017%=      5-min Rain = 0
KBO1 141442Z 24015KT 25/M01 A3005 RMK A01 T02531013  RH  017%=      5-min Rain = 0
KBO1 141443Z 23015KT 25/M01 A3005 RMK A01 T02541012  RH  017%=      5-min Rain = 0
KBO1 141444Z 24015KT 26/M01 A3005 RMK A01 T02551011  RH  017%=      5-min Rain = 0
KBO1 141445Z 24014KT 26/M01 A3005 RMK A01 T02561013  RH  017%=      5-min Rain = 0
KBO1 141446Z 24014KT 26/M01 A3005 RMK A01 T02561013  RH  017%=      5-min Rain = 0
KBO1 141447Z 23015KT 26/M01 A3005 RMK A01 T02561010  RH  017%=      5-min Rain = 0
KBO1 141448Z 24014KT 26/M01 A3005 RMK A01 T02571012  RH  017%=      5-min Rain = 0
KBO1 141449Z 24016KT 26/M02 A3005 RMK A01 T02571015  RH  017%=      5-min Rain = 0
KBO1 141450Z 24014KT 26/M02 A3005 RMK A01 T02581018  RH  016%=      5-min Rain = 0
KBO1 141451Z 24014KT 26/M02 A3005 RMK A01 T02581018  RH  016%=      5-min Rain = 0
KBO1 141452Z 24011KT 26/M01 A3005 RMK A01 T02601012  RH  017%=      5-min Rain = 0
KBO1 141453Z 25016KT 26/M02 A3005 RMK A01 T02631017  RH  016%=      5-min Rain = 0
KBO1 141454Z 25014KT 26/M02 A3005 RMK A01 T02621022  RH  015%=      5-min Rain = 0
KBO1 141455Z 24013KT 26/M02 A3005 RMK A01 T02621022  RH  015%=      5-min Rain = 0
KBO1 141456Z 24012KT 26/M02 A3005 RMK A01 T02611022  RH  015%=      5-min Rain = 0
KBO1 141457Z 24013KT 26/M01 A3005 RMK A01 T02611013  RH  016%=      5-min Rain = 0
KBO1 141458Z 23014KT 26/M01 A3005 RMK A01 T02621014  RH  016%=      5-min Rain = 0
KBO1 141459Z 25012KT 26/M02 A3005 RMK A01 T02631016  RH  016%=      5-min Rain = 0
KBO1 141500Z 24013KT 26/M02 A3005 RMK A01 T02621016  RH  016%=      5-min Rain = 0
KBO1 141501Z 25012KT 26/M02 A3005 RMK A01 T02611019  RH  016%=      5-min Rain = 0
KBO1 141502Z 25011KT 26/M02 A3005 RMK A01 T02621016  RH  016%=      5-min Rain = 0
KBO1 141503Z 24012KT 27/M02 A3005 RMK A01 T02651017  RH  016%=      5-min Rain = 0
KBO1 141504Z 25012KT 27/M02 A3005 RMK A01 T02671016  RH  016%=      5-min Rain = 0
KBO1 141505Z 25012KT 27/M02 A3005 RMK A01 T02661019  RH  015%=      5-min Rain = 0
KBO1 141506Z 24011KT 27/M02 A3005 RMK A01 T02661016  RH  016%=      5-min Rain = 0
KBO1 141507Z 25012KT 27/M02 A3005 RMK A01 T02681020  RH  015%=      5-min Rain = 0
KBO1 141508Z 25013KT 27/M03 A3005 RMK A01 T02701025  RH  014%=      5-min Rain = 0
KBO1 141509Z 25013KT 27/M03 A3005 RMK A01 T02701027  RH  014%=      5-min Rain = 0
KBO1 141510Z 24013KT 27/M03 A3005 RMK A01 T02701025  RH  014%=      5-min Rain = 0
KBO1 141511Z 25012KT 27/M03 A3005 RMK A01 T02691030  RH  014%=      5-min Rain = 0
KBO1 141512Z 26013KT 27/M03 A3005 RMK A01 T02681032  RH  014%=      5-min Rain = 0
KBO1 141513Z 27011KT 27/M04 A3005 RMK A01 T02671035  RH  013%=      5-min Rain = 0
KBO1 141514Z 27011KT 27/M03 A3005 RMK A01 T02671030  RH  014%=      5-min Rain = 0
KBO1 141515Z 28015KT 27/M02 A3005 RMK A01 T02681024  RH  014%=      5-min Rain = 0
KBO1 141516Z 32015KT 27/M01 A3006 RMK A01 T02691012  RH  016%=      5-min Rain = 0
KBO1 141517Z 34013KT 27/M01 A3006 RMK A01 T02651009  RH  017%=      5-min Rain = 0
KBO1 141518Z 35011KT 26/M01 A3006 RMK A01 T02611008  RH  017%=      5-min Rain = 0
KBO1 141519Z 35010KT 26/M01 A3006 RMK A01 T02601007  RH  017%=      5-min Rain = 0
KBO1 141520Z 35010KT 26/M01 A3006 RMK A01 T02611009  RH  017%=      5-min Rain = 0
KBO1 141521Z 33013G18KT 26/M01 A3006 RMK A01 T02601012  RH  017%=      5-min Rain = 0
KBO1 141522Z 34010KT 26/M02 A3006 RMK A01 T02581015  RH  016%=      5-min Rain = 0
KBO1 141523Z 34011KT 26/M01 A3006 RMK A01 T02571012  RH  017%=      5-min Rain = 0
KBO1 141524Z 35010KT 26/M01 A3006 RMK A01 T02581009  RH  017%=      5-min Rain = 0
KBO1 141525Z 35013KT 26/M01 A3006 RMK A01 T02591009  RH  017%=      5-min Rain = 0
KBO1 141526Z 35012KT 26/M02 A3006 RMK A01 T02591015  RH  016%=      5-min Rain = 0
KBO1 141527Z 35009KT 26/M01 A3006 RMK A01 T02581012  RH  017%=      5-min Rain = 0
KBO1 141528Z 34008KT 26/M01 A3006 RMK A01 T02601009  RH  017%=      5-min Rain = 0
KBO1 141529Z 36009KT 26/M01 A3006 RMK A01 T02621006  RH  017%=      5-min Rain = 0
KBO1 141530Z 35011KT 26/00 A3006 RMK A01 T02630000  RH  018%=      5-min Rain = 0
KBO1 141531Z 35010KT 26/M01 A3006 RMK A01 T02621005  RH  017%=      5-min Rain = 0
KBO1 141532Z 36010KT 26/M01 A3006 RMK A01 T02601009  RH  017%=      5-min Rain = 0
KBO1 141533Z 35010KT 26/M00 A3006 RMK A01 T02581003  RH  018%=      5-min Rain = 0
KBO1 141534Z 36011KT 26/M00 A3006 RMK A01 T02601002  RH  018%=      5-min Rain = 0
KBO1 141535Z 00010KT 26/00 A3006 RMK A01 T025900-0  RH  018%=      5-min Rain = 0
KBO1 141536Z 35010KT 26/00 A3006 RMK A01 T02580002  RH  019%=      5-min Rain = 0
KBO1 141537Z 35011KT 26/00 A3006 RMK A01 T02560001  RH  019%=      5-min Rain = 0
KBO1 141538Z 35010KT 26/M00 A3006 RMK A01 T02551002  RH  018%=      5-min Rain = 0
KBO1 141539Z 00009KT 25/00 A3006 RMK A01 T025400-0  RH  019%=      5-min Rain = 0
KBO1 141540Z 35010KT 26/00 A3006 RMK A01 T02560003  RH  019%=      5-min Rain = 0
KBO1 141541Z 35008KT 26/00 A3006 RMK A01 T02580001  RH  019%=      5-min Rain = 0
KBO1 141542Z 35008KT 26/00 A3006 RMK A01 T025800-0  RH  018%=      5-min Rain = 0
KBO1 141543Z 35009KT 26/M00 A3006 RMK A01 T02581001  RH  018%=      5-min Rain = 0
KBO1 141544Z 33009KT 26/M00 A3006 RMK A01 T02561002  RH  018%=      5-min Rain = 0
KBO1 141545Z 34009KT 26/M00 A3006 RMK A01 T02561002  RH  018%=      5-min Rain = 0
KBO1 141546Z 33008KT 26/M00 A3006 RMK A01 T02581002  RH  018%=      5-min Rain = 0
KBO1 141547Z 33008KT 26/M00 A3006 RMK A01 T02581004  RH  018%=      5-min Rain = 0
KBO1 141548Z 33010KT 26/00 A3006 RMK A01 T02570001  RH  019%=      5-min Rain = 0
KBO1 141549Z 34011KT 26/00 A3006 RMK A01 T02580002  RH  019%=      5-min Rain = 0
KBO1 141550Z 34010KT 26/00 A3006 RMK A01 T02590001  RH  018%=      5-min Rain = 0
KBO1 141551Z 34008KT 26/00 A3006 RMK A01 T02600001  RH  018%=      5-min Rain = 0
KBO1 141552Z 35009KT 26/M00 A3005 RMK A01 T02601004  RH  018%=      5-min Rain = 0
KBO1 141553Z 32008KT 26/M01 A3005 RMK A01 T02611007  RH  017%=      5-min Rain = 0
KBO1 141554Z 31009KT 26/M01 A3005 RMK A01 T02611008  RH  017%=      5-min Rain = 0
KBO1 141555Z 32008KT 26/M01 A3005 RMK A01 T02611008  RH  017%=      5-min Rain = 0
KBO1 141556Z 33008KT 26/00 A3005 RMK A01 T02600002  RH  018%=      5-min Rain = 0
KBO1 141557Z 33009KT 26/M01 A3005 RMK A01 T02631006  RH  017%=      5-min Rain = 0
KBO1 141558Z 32009KT 26/M01 A3005 RMK A01 T02621012  RH  016%=      5-min Rain = 0
KBO1 141559Z 32008KT 26/M01 A3005 RMK A01 T02601009  RH  017%=      5-min Rain = 0
KBO1 141600Z 33008KT 26/M01 A3005 RMK A01 T02581007  RH  017%=      5-min Rain = 0
KBO1 141601Z 34010KT 26/M00 A3005 RMK A01 T02581004  RH  018%=      5-min Rain = 0
KBO1 141602Z 35007KT 26/M01 A3005 RMK A01 T02611008  RH  017%=      5-min Rain = 0
KBO1 141603Z 34008KT 26/M00 A3005 RMK A01 T02611001  RH  018%=      5-min Rain = 0
KBO1 141604Z 33011KT 26/00 A3005 RMK A01 T02630002  RH  018%=      5-min Rain = 0
KBO1 141605Z 31010KT 27/M00 A3005 RMK A01 T02661002  RH  017%=      5-min Rain = 0
KBO1 141606Z 34009KT 27/M00 A3005 RMK A01 T02661001  RH  017%=      5-min Rain = 0
KBO1 141607Z 33010KT 27/00 A3005 RMK A01 T02660001  RH  018%=      5-min Rain = 0
KBO1 141608Z 34009KT 26/M01 A3005 RMK A01 T02641010  RH  017%=      5-min Rain = 0
KBO1 141609Z 34009KT 26/M01 A3005 RMK A01 T02631007  RH  017%=      5-min Rain = 0
KBO1 141610Z 32010KT 26/M01 A3005 RMK A01 T02641012  RH  016%=      5-min Rain = 0
KBO1 141611Z 33009KT 26/M01 A3005 RMK A01 T02641006  RH  017%=      5-min Rain = 0
KBO1 141612Z 33006KT 26/M01 A3005 RMK A01 T02621012  RH  016%=      5-min Rain = 0
KBO1 141613Z 34007KT 26/M01 A3005 RMK A01 T02611013  RH  017%=      5-min Rain = 0
KBO1 141614Z 34006KT 26/M01 A3005 RMK A01 T02621012  RH  016%=      5-min Rain = 0
KBO1 141615Z 34005KT 27/M01 A3005 RMK A01 T02651005  RH  017%=      5-min Rain = 0
KBO1 141616Z 35006KT 27/00 A3005 RMK A01 T02670000  RH  017%=      5-min Rain = 0
KBO1 141617Z 34009KT 27/00 A3005 RMK A01 T02680001  RH  017%=      5-min Rain = 0
KBO1 141618Z 34009KT 27/M00 A3005 RMK A01 T02681002  RH  017%=      5-min Rain = 0
KBO1 141619Z 32009KT 27/00 A3005 RMK A01 T02660004  RH  018%=      5-min Rain = 0
KBO1 141620Z 33010KT 27/01 A3005 RMK A01 T02650006  RH  018%=      5-min Rain = 0
KBO1 141621Z 32007KT 27/01 A3005 RMK A01 T02650006  RH  018%=      5-min Rain = 0
KBO1 141622Z 35010KT 27/01 A3005 RMK A01 T02650006  RH  018%=      5-min Rain = 0
KBO1 141623Z 36010KT 26/01 A3005 RMK A01 T02640009  RH  019%=      5-min Rain = 0
KBO1 141624Z 00011KT 26/01 A3005 RMK A01 T02610009  RH  019%=      5-min Rain = 0
KBO1 141625Z 36008KT 26/01 A3005 RMK A01 T02600006  RH  019%=      5-min Rain = 0
KBO1 141626Z 36008KT 26/01 A3005 RMK A01 T02600008  RH  019%=      5-min Rain = 0
KBO1 141627Z 35011KT 26/01 A3005 RMK A01 T02640008  RH  019%=      5-min Rain = 0
KBO1 141628Z 36009KT 27/01 A3005 RMK A01 T02650006  RH  018%=      5-min Rain = 0
KBO1 141629Z 36006G11KT 26/00 A3005 RMK A01 T02640004  RH  018%=      5-min Rain = 0
KBO1 141630Z 35007KT 26/00 A3005 RMK A01 T026400-0  RH  018%=      5-min Rain = 0
KBO1 141631Z 36006KT 26/M00 A3005 RMK A01 T02621001  RH  018%=      5-min Rain = 0
KBO1 141632Z 33009KT 26/02 A3005 RMK A01 T02620016  RH  020%=      5-min Rain = 0
KBO1 141633Z 34008KT 26/03 A3005 RMK A01 T02630026  RH  021%=      5-min Rain = 0
KBO1 141634Z 36009KT 26/02 A3005 RMK A01 T02620024  RH  021%=      5-min Rain = 0
KBO1 141635Z 00007KT 26/03 A3005 RMK A01 T02620030  RH  022%=      5-min Rain = 0
KBO1 141636Z 01008KT 26/04 A3005 RMK A01 T02620035  RH  023%=      5-min Rain = 0
KBO1 141637Z 02009KT 26/03 A3005 RMK A01 T02620031  RH  023%=      5-min Rain = 0
KBO1 141638Z 01008KT 26/03 A3005 RMK A01 T02610032  RH  023%=      5-min Rain = 0
KBO1 141639Z 36010KT 26/04 A3005 RMK A01 T02610037  RH  023%=      5-min Rain = 0
KBO1 141640Z 01008KT 26/04 A3005 RMK A01 T02640038  RH  023%=      5-min Rain = 0
KBO1 141641Z 00008KT 26/03 A3005 RMK A01 T02630034  RH  023%=      5-min Rain = 0
KBO1 141642Z 35010KT 26/04 A3005 RMK A01 T02620035  RH  023%=      5-min Rain = 0
KBO1 141643Z 35008KT 26/04 A3005 RMK A01 T02620035  RH  023%=      5-min Rain = 0
KBO1 141644Z 35008KT 26/03 A3005 RMK A01 T02620034  RH  023%=      5-min Rain = 0
KBO1 141645Z 36008KT 26/03 A3005 RMK A01 T02610029  RH  022%=      5-min Rain = 0
KBO1 141646Z 01007KT 26/03 A3006 RMK A01 T02580028  RH  022%=      5-min Rain = 0
KBO1 141647Z 01007KT 26/03 A3005 RMK A01 T02570028  RH  023%=      5-min Rain = 0
KBO1 141648Z 01008KT 26/03 A3006 RMK A01 T02590029  RH  023%=      5-min Rain = 0
KBO1 141649Z 02007KT 26/02 A3006 RMK A01 T02590024  RH  022%=      5-min Rain = 0
KBO1 141650Z 03005KT 26/02 A3006 RMK A01 T02590022  RH  021%=      5-min Rain = 0
KBO1 141651Z 04007KT 26/02 A3006 RMK A01 T02590024  RH  022%=      5-min Rain = 0
KBO1 141652Z 06006KT 26/02 A3006 RMK A01 T02600016  RH  020%=      5-min Rain = 0
KBO1 141653Z 05004KT 26/02 A3006 RMK A01 T02600017  RH  021%=      5-min Rain = 0
KBO1 141654Z 01006KT 26/02 A3006 RMK A01 T02600016  RH  020%=      5-min Rain = 0
KBO1 141655Z 03006KT 26/02 A3006 RMK A01 T02600016  RH  020%=      5-min Rain = 0
KBO1 141656Z 01006KT 26/02 A3006 RMK A01 T02600016  RH  020%=      5-min Rain = 0
KBO1 141657Z 05004KT 26/02 A3006 RMK A01 T02600016  RH  020%=      5-min Rain = 0
KBO1 141658Z 07005KT 26/02 A3006 RMK A01 T02600015  RH  020%=      5-min Rain = 0
KBO1 141659Z 02004KT 26/01 A3006 RMK A01 T02620013  RH  020%=      5-min Rain = 0
KBO1 141700Z 35005KT 26/01 A3006 RMK A01 T02640014  RH  020%=      5-min Rain = 0
KBO1 141701Z 33003KT 27/01 A3006 RMK A01 T02660008  RH  019%=      5-min Rain = 0
KBO1 141702Z 30003KT 27/01 A3006 RMK A01 T02650009  RH  019%=      5-min Rain = 0
KBO1 141703Z 28001KT 27/01 A3006 RMK A01 T02650011  RH  019%=      5-min Rain = 0
KBO1 141704Z 36001KT 27/02 A3006 RMK A01 T02650017  RH  020%=      5-min Rain = 0
KBO1 141705Z 34002KT 27/01 A3006 RMK A01 T02670014  RH  019%=      5-min Rain = 0
KBO1 141706Z 33004KT 27/01 A3006 RMK A01 T02690014  RH  019%=      5-min Rain = 0
KBO1 141707Z 35005KT 27/01 A3006 RMK A01 T02710014  RH  019%=      5-min Rain = 0
KBO1 141708Z 35004KT 27/02 A3006 RMK A01 T02710016  RH  019%=      5-min Rain = 0
KBO1 141709Z 31006KT 27/02 A3006 RMK A01 T02730018  RH  019%=      5-min Rain = 0
KBO1 141710Z 35006KT 28/01 A3006 RMK A01 T02750013  RH  018%=      5-min Rain = 0
KBO1 141711Z 35004KT 27/01 A3006 RMK A01 T02720008  RH  018%=      5-min Rain = 0
KBO1 141712Z 05001KT 27/00 A3006 RMK A01 T02680002  RH  018%=      5-min Rain = 0
KBO1 141713Z 05001KT 27/00 A3006 RMK A01 T02670001  RH  018%=      5-min Rain = 0
KBO1 141714Z 02003KT 27/00 A3006 RMK A01 T02690002  RH  017%=      5-min Rain = 0
KBO1 141715Z 02002KT 27/00 A3006 RMK A01 T026900-0  RH  017%=      5-min Rain = 0
KBO1 141716Z 01003KT 27/00 A3006 RMK A01 T02680003  RH  018%=      5-min Rain = 0
KBO1 141717Z 35002KT 27/00 A3006 RMK A01 T02690004  RH  018%=      5-min Rain = 0
KBO1 141718Z 35000KT 27/00 A3006 RMK A01 T02680003  RH  018%=      5-min Rain = 0
KBO1 141719Z 00000KT 27/00 A3006 RMK A01 T02680003  RH  018%=      5-min Rain = 0
KBO1 141720Z 22001KT 27/00 A3006 RMK A01 T02710001  RH  017%=      5-min Rain = 0
KBO1 141721Z 31000KT 27/M02 A3006 RMK A01 T02741021  RH  014%=      5-min Rain = 0
KBO1 141722Z 20003KT 28/M02 A3005 RMK A01 T02761020  RH  014%=      5-min Rain = 0
KBO1 141723Z 20004KT 28/M01 A3005 RMK A01 T02781014  RH  015%=      5-min Rain = 0
KBO1 141724Z 20003KT 28/M01 A3005 RMK A01 T02781010  RH  015%=      5-min Rain = 0
KBO1 141725Z 20002KT 28/M00 A3006 RMK A01 T02761004  RH  016%=      5-min Rain = 0
KBO1 141726Z 27001KT 28/M00 A3005 RMK A01 T02751002  RH  016%=      5-min Rain = 0
KBO1 141727Z 35000KT 27/M00 A3005 RMK A01 T02731004  RH  016%=      5-min Rain = 0
KBO1 141728Z 11000KT 27/M00 A3005 RMK A01 T02731002  RH  017%=      5-min Rain = 0
KBO1 141729Z 04000KT 27/M00 A3005 RMK A01 T02741002  RH  017%=      5-min Rain = 0
KBO1 141730Z 03002KT 28/00 A3005 RMK A01 T02760000  RH  017%=      5-min Rain = 0
KBO1 141731Z 02003KT 28/00 A3005 RMK A01 T02770001  RH  017%=      5-min Rain = 0
KBO1 141732Z 34005G10KT 28/00 A3005 RMK A01 T02770003  RH  017%=      5-min Rain = 0
KBO1 141733Z 32007KT 28/01 A3005 RMK A01 T02780011  RH  018%=      5-min Rain = 0
KBO1 141734Z 34006KT 28/00 A3005 RMK A01 T02790004  RH  017%=      5-min Rain = 0
KBO1 141735Z 00005KT 28/00 A3005 RMK A01 T02770001  RH  017%=      5-min Rain = 0
KBO1 141736Z 01005KT 28/00 A3005 RMK A01 T02760002  RH  017%=      5-min Rain = 0
KBO1 141737Z 03003KT 28/M01 A3005 RMK A01 T02751010  RH  016%=      5-min Rain = 0
KBO1 141738Z 03003KT 27/M01 A3005 RMK A01 T02741014  RH  015%=      5-min Rain = 0
KBO1 141739Z 04003KT 27/M01 A3005 RMK A01 T02731012  RH  015%=      5-min Rain = 0
KBO1 141740Z 06004KT 28/M01 A3005 RMK A01 T02751009  RH  016%=      5-min Rain = 0
KBO1 141741Z 06002KT 28/M01 A3005 RMK A01 T02761007  RH  016%=      5-min Rain = 0
KBO1 141742Z 29003KT 28/00 A3005 RMK A01 T02790002  RH  017%=      5-min Rain = 0
KBO1 141743Z 29006KT 28/00 A3005 RMK A01 T02820004  RH  016%=      5-min Rain = 0
KBO1 141744Z 27007KT 28/00 A3005 RMK A01 T02830002  RH  016%=      5-min Rain = 0
KBO1 141745Z 26006KT 28/M00 A3005 RMK A01 T02831002  RH  016%=      5-min Rain = 0
KBO1 141746Z 23005KT 28/M01 A3005 RMK A01 T02831005  RH  015%=      5-min Rain = 0
KBO1 141747Z 23004KT 28/M01 A3005 RMK A01 T02841009  RH  015%=      5-min Rain = 0
KBO1 141748Z 23003KT 28/M00 A3005 RMK A01 T02841003  RH  015%=      5-min Rain = 0
KBO1 141749Z 27002KT 29/M00 A3005 RMK A01 T02861001  RH  016%=      5-min Rain = 0
KBO1 141750Z 32003KT 29/00 A3005 RMK A01 T028800-0  RH  015%=      5-min Rain = 0
KBO1 141751Z 32002KT 29/M00 A3005 RMK A01 T02881004  RH  015%=      5-min Rain = 0
KBO1 141752Z 31001KT 29/M00 A3005 RMK A01 T02861004  RH  015%=      5-min Rain = 0
KBO1 141753Z 20001KT 29/M00 A3005 RMK A01 T02861001  RH  016%=      5-min Rain = 0
KBO1 141754Z 20002KT 29/M00 A3005 RMK A01 T02871002  RH  015%=      5-min Rain = 0
KBO1 141755Z 21004KT 29/M00 A3005 RMK A01 T02881003  RH  015%=      5-min Rain = 0
KBO1 141756Z 19002KT 29/M01 A3005 RMK A01 T02871005  RH  015%=      5-min Rain = 0
KBO1 141757Z 11002KT 29/M01 A3005 RMK A01 T02861005  RH  015%=      5-min Rain = 0
KBO1 141758Z 17000KT 29/M01 A3005 RMK A01 T02861008  RH  015%=      5-min Rain = 0
KBO1 141759Z 11001KT 29/M01 A3005 RMK A01 T02851008  RH  015%=      5-min Rain = 0
KBO1 141800Z 12001KT 29/M01 A3004 RMK A01 T02851005  RH  015%=      5-min Rain = 0
KBO1 141801Z 10001KT 29/M01 A3004 RMK A01 T02861007  RH  015%=      5-min Rain = 0
KBO1 141802Z 14004KT 29/M01 A3004 RMK A01 T02861007  RH  015%=      5-min Rain = 0
KBO1 141803Z 14003KT 29/M01 A3004 RMK A01 T02861007  RH  015%=      5-min Rain = 0
KBO1 141804Z 17001KT 29/M01 A3004 RMK A01 T02861006  RH  015%=      5-min Rain = 0
KBO1 141805Z 17003KT 29/M00 A3004 RMK A01 T02871004  RH  015%=      5-min Rain = 0
KBO1 141806Z 10000KT 29/M01 A3004 RMK A01 T02871010  RH  015%=      5-min Rain = 0
KBO1 141807Z 25001KT 29/M01 A3004 RMK A01 T02851007  RH  015%=      5-min Rain = 0
KBO1 141808Z 24002KT 29/M00 A3004 RMK A01 T02861001  RH  016%=      5-min Rain = 0
KBO1 141809Z 27002KT 29/M00 A3004 RMK A01 T02881004  RH  015%=      5-min Rain = 0
KBO1 141810Z 30002KT 29/M01 A3004 RMK A01 T02891005  RH  015%=      5-min Rain = 0
KBO1 141811Z 03001KT 29/M01 A3004 RMK A01 T02881008  RH  015%=      5-min Rain = 0
KBO1 141812Z 10005KT 29/M01 A3004 RMK A01 T02871006  RH  015%=      5-min Rain = 0
KBO1 141813Z 12005KT 28/M01 A3004 RMK A01 T02841008  RH  015%=      5-min Rain = 0
KBO1 141814Z 15005KT 29/00 A3004 RMK A01 T02850000  RH  016%=      5-min Rain = 0
KBO1 141815Z 14007KT 29/00 A3004 RMK A01 T02910002  RH  015%=      5-min Rain = 0
KBO1 141816Z 11008KT 29/M00 A3004 RMK A01 T02931003  RH  015%=      5-min Rain = 0
KBO1 141817Z 10007KT 29/M01 A3004 RMK A01 T02901008  RH  014%=      5-min Rain = 0
KBO1 141818Z 10005KT 28/M01 A3004 RMK A01 T02841010  RH  015%=      5-min Rain = 0
KBO1 141819Z 11003KT 28/M01 A3004 RMK A01 T02831006  RH  015%=      5-min Rain = 0
KBO1 141820Z 13002KT 28/M01 A3004 RMK A01 T02841005  RH  015%=      5-min Rain = 0
KBO1 141821Z 18005KT 29/M01 A3004 RMK A01 T02871005  RH  015%=      5-min Rain = 0
KBO1 141822Z 19007KT 29/M00 A3004 RMK A01 T02891004  RH  015%=      5-min Rain = 0
KBO1 141823Z 18007KT 29/M01 A3004 RMK A01 T02911007  RH  014%=      5-min Rain = 0
KBO1 141824Z 18009KT 29/M00 A3003 RMK A01 T02911002  RH  015%=      5-min Rain = 0
KBO1 141825Z 17008KT 29/M01 A3003 RMK A01 T02941005  RH  014%=      5-min Rain = 0
KBO1 141826Z 16008KT 29/M01 A3003 RMK A01 T02921005  RH  015%=      5-min Rain = 0
KBO1 141827Z 18007KT 29/M00 A3003 RMK A01 T02921002  RH  015%=      5-min Rain = 0
KBO1 141828Z 19005KT 29/M01 A3003 RMK A01 T02911009  RH  014%=      5-min Rain = 0
KBO1 141829Z 19006KT 29/M01 A3003 RMK A01 T02881006  RH  015%=      5-min Rain = 0
KBO1 141830Z 19006KT 29/M01 A3003 RMK A01 T02861008  RH  015%=      5-min Rain = 0
KBO1 141831Z 20003KT 28/M01 A3003 RMK A01 T02841008  RH  015%=      5-min Rain = 0
KBO1 141832Z 20005KT 28/M01 A3003 RMK A01 T02841007  RH  015%=      5-min Rain = 0
KBO1 141833Z 22005KT 28/M01 A3003 RMK A01 T02841007  RH  015%=      5-min Rain = 0
KBO1 141834Z 23006KT 29/M01 A3003 RMK A01 T02851006  RH  015%=      5-min Rain = 0
KBO1 141835Z 26004KT 29/M01 A3003 RMK A01 T02871009  RH  015%=      5-min Rain = 0
KBO1 141836Z 23006KT 29/M01 A3003 RMK A01 T02881009  RH  014%=      5-min Rain = 0
KBO1 141837Z 23005KT 29/M02 A3003 RMK A01 T02901019  RH  013%=      5-min Rain = 0
KBO1 141838Z 25010KT 29/M02 A3003 RMK A01 T02941020  RH  013%=      5-min Rain = 0
KBO1 141839Z 25006KT 30/M02 A3003 RMK A01 T02971022  RH  012%=      5-min Rain = 0
KBO1 141840Z 25005KT 30/M02 A3003 RMK A01 T02971023  RH  012%=      5-min Rain = 0
KBO1 141841Z 23007KT 30/M02 A3003 RMK A01 T02981022  RH  012%=      5-min Rain = 0
KBO1 141842Z 24006KT 30/M02 A3003 RMK A01 T02981021  RH  013%=      5-min Rain = 0
KBO1 141843Z 24005KT 30/M02 A3003 RMK A01 T02991022  RH  012%=      5-min Rain = 0
KBO1 141844Z 24005KT 30/M02 A3003 RMK A01 T03001018  RH  013%=      5-min Rain = 0
KBO1 141845Z 21010KT 30/M02 A3003 RMK A01 T03001021  RH  012%=      5-min Rain = 0
KBO1 141846Z 22011KT 30/M02 A3003 RMK A01 T02981022  RH  012%=      5-min Rain = 0
KBO1 141847Z 23011KT 30/M02 A3003 RMK A01 T02981022  RH  012%=      5-min Rain = 0
KBO1 141848Z 25013KT 30/M01 A3002 RMK A01 T03031013  RH  013%=      5-min Rain = 0
KBO1 141849Z 23011KT 31/M02 A3003 RMK A01 T03101016  RH  012%=      5-min Rain = 0
KBO1 141850Z 23012KT 31/M02 A3002 RMK A01 T03101018  RH  012%=      5-min Rain = 0
KBO1 141851Z 20010KT 31/M02 A3002 RMK A01 T03091017  RH  012%=      5-min Rain = 0
KBO1 141852Z 22010KT 31/M02 A3002 RMK A01 T03061021  RH  012%=      5-min Rain = 0
KBO1 141853Z 19011KT 30/M02 A3003 RMK A01 T03011021  RH  012%=      5-min Rain = 0
KBO1 141854Z 19009KT 30/M02 A3003 RMK A01 T02991021  RH  012%=      5-min Rain = 0
KBO1 141855Z 18007KT 30/M02 A3003 RMK A01 T02981023  RH  012%=      5-min Rain = 0
KBO1 141856Z 16006KT 30/M02 A3003 RMK A01 T02961022  RH  013%=      5-min Rain = 0
KBO1 141857Z 21006KT 29/M02 A3003 RMK A01 T02941024  RH  013%=      5-min Rain = 0
KBO1 141858Z 19008KT 29/M02 A3003 RMK A01 T02921023  RH  013%=      5-min Rain = 0
KBO1 141859Z 18009KT 29/M03 A3003 RMK A01 T02911025  RH  013%=      5-min Rain = 0
KBO1 141900Z 18010KT 29/M02 A3003 RMK A01 T02901022  RH  013%=      5-min Rain = 0
KBO1 141901Z 17006KT 29/M02 A3002 RMK A01 T02901024  RH  013%=      5-min Rain = 0
KBO1 141902Z 17008KT 29/M03 A3002 RMK A01 T02901025  RH  013%=      5-min Rain = 0
KBO1 141903Z 16007KT 29/M03 A3002 RMK A01 T02891025  RH  013%=      5-min Rain = 0
KBO1 141904Z 15007KT 29/M03 A3002 RMK A01 T02891026  RH  013%=      5-min Rain = 0
KBO1 141905Z 17007KT 29/M03 A3002 RMK A01 T02891025  RH  013%=      5-min Rain = 0
KBO1 141906Z 21002KT 29/M03 A3002 RMK A01 T02901027  RH  013%=      5-min Rain = 0
KBO1 141907Z 16003KT 29/M02 A3002 RMK A01 T02901024  RH  013%=      5-min Rain = 0
KBO1 141908Z 19007KT 29/M02 A3002 RMK A01 T02901024  RH  013%=      5-min Rain = 0
KBO1 141909Z 19007KT 29/M02 A3002 RMK A01 T02901022  RH  013%=      5-min Rain = 0
KBO1 141910Z 19009KT 29/M02 A3002 RMK A01 T02901020  RH  013%=      5-min Rain = 0
KBO1 141911Z 19008KT 29/M02 A3002 RMK A01 T02911023  RH  013%=      5-min Rain = 0
KBO1 141912Z 20004KT 29/M03 A3002 RMK A01 T02901027  RH  012%=      5-min Rain = 0
KBO1 141913Z 21005KT 29/M02 A3002 RMK A01 T02881023  RH  013%=      5-min Rain = 0
KBO1 141914Z 24004KT 29/M02 A3002 RMK A01 T02891020  RH  013%=      5-min Rain = 0
KBO1 141915Z 28004KT 29/M02 A3002 RMK A01 T02911021  RH  013%=      5-min Rain = 0
KBO1 141916Z 23007KT 29/M02 A3002 RMK A01 T02941018  RH  013%=      5-min Rain = 0
KBO1 141917Z 18006KT 30/M01 A3002 RMK A01 T02991014  RH  013%=      5-min Rain = 0
KBO1 141918Z 18007KT 30/M02 A3002 RMK A01 T03031016  RH  013%=      5-min Rain = 0
KBO1 141919Z 21008KT 30/M02 A3002 RMK A01 T03021019  RH  012%=      5-min Rain = 0
KBO1 141920Z 22011KT 30/M01 A3002 RMK A01 T03031012  RH  013%=      5-min Rain = 0
KBO1 141921Z 22010KT 31/M02 A3002 RMK A01 T03061019  RH  012%=      5-min Rain = 0
KBO1 141922Z 22006KT 30/M02 A3002 RMK A01 T03021023  RH  012%=      5-min Rain = 0
KBO1 141923Z 22004KT 30/M02 A3002 RMK A01 T02981022  RH  012%=      5-min Rain = 0
KBO1 141924Z 15004KT 30/M02 A3002 RMK A01 T02981016  RH  013%=      5-min Rain = 0
KBO1 141925Z 15004KT 30/M02 A3002 RMK A01 T03011016  RH  013%=      5-min Rain = 0
KBO1 141926Z 17005KT 30/M02 A3002 RMK A01 T03041016  RH  013%=      5-min Rain = 0
KBO1 141927Z 24004KT 31/M02 A3002 RMK A01 T03051021  RH  012%=      5-min Rain = 0
KBO1 141928Z 29005KT 30/M02 A3001 RMK A01 T03011024  RH  012%=      5-min Rain = 0
KBO1 141929Z 32002KT 30/M02 A3001 RMK A01 T02971021  RH  013%=      5-min Rain = 0
KBO1 141930Z 12006KT 30/M02 A3002 RMK A01 T02951022  RH  013%=      5-min Rain = 0
KBO1 141931Z 16008KT 30/M02 A3001 RMK A01 T02951019  RH  013%=      5-min Rain = 0
KBO1 141932Z 16005KT 30/M02 A3001 RMK A01 T02961019  RH  013%=      5-min Rain = 0
KBO1 141933Z 18005KT 30/M02 A3001 RMK A01 T02971021  RH  013%=      5-min Rain = 0
KBO1 141934Z 19004KT 30/M02 A3001 RMK A01 T02961023  RH  012%=      5-min Rain = 0
KBO1 141935Z 19006KT 30/M02 A3001 RMK A01 T02951017  RH  013%=      5-min Rain = 0
KBO1 141936Z 21008KT 30/M02 A3001 RMK A01 T02971015  RH  013%=      5-min Rain = 0
KBO1 141937Z 21008KT 30/M02 A3001 RMK A01 T02981016  RH  013%=      5-min Rain = 0
KBO1 141938Z 25006KT 30/M02 A3001 RMK A01 T02991017  RH  013%=      5-min Rain = 0
KBO1 141939Z 24005KT 30/M02 A3001 RMK A01 T02991016  RH  013%=      5-min Rain = 0
KBO1 141940Z 26003KT 30/M02 A3001 RMK A01 T02991021  RH  012%=      5-min Rain = 0
KBO1 141941Z 21002KT 30/M02 A3001 RMK A01 T02991020  RH  013%=      5-min Rain = 0
KBO1 141942Z 20010KT 30/M02 A3001 RMK A01 T02981017  RH  013%=      5-min Rain = 0
KBO1 141943Z 21011KT 30/M02 A3001 RMK A01 T02981019  RH  013%=      5-min Rain = 0
KBO1 141944Z 21010KT 30/M02 A3001 RMK A01 T02971020  RH  013%=      5-min Rain = 0
KBO1 141945Z 21007KT 30/M02 A3001 RMK A01 T02951020  RH  013%=      5-min Rain = 0
KBO1 141946Z 23011KT 30/M02 A3001 RMK A01 T02961017  RH  013%=      5-min Rain = 0
KBO1 141947Z 22011KT 30/M02 A3001 RMK A01 T02961020  RH  013%=      5-min Rain = 0
KBO1 141948Z 22014KT 30/M02 A3001 RMK A01 T02961019  RH  013%=      5-min Rain = 0
KBO1 141949Z 23011KT 30/M02 A3001 RMK A01 T02961020  RH  013%=      5-min Rain = 0
KBO1 141950Z 22010KT 30/M02 A3001 RMK A01 T02971015  RH  013%=      5-min Rain = 0
KBO1 141951Z 20012G18KT 30/M01 A3001 RMK A01 T03011011  RH  013%=      5-min Rain = 0
KBO1 141952Z 20014KT 30/M01 A3001 RMK A01 T03021013  RH  013%=      5-min Rain = 0
KBO1 141953Z 20015KT 30/M01 A3001 RMK A01 T03021012  RH  013%=      5-min Rain = 0
KBO1 141954Z 20015KT 30/M01 A3001 RMK A01 T03031013  RH  013%=      5-min Rain = 0
KBO1 141955Z 22014KT 31/M01 A3001 RMK A01 T03071008  RH  013%=      5-min Rain = 0
KBO1 141956Z 21015KT 31/M01 A3001 RMK A01 T03121010  RH  013%=      5-min Rain = 0
KBO1 141957Z 21014KT 31/M01 A3001 RMK A01 T03131009  RH  013%=      5-min Rain = 0
KBO1 141958Z 21015KT 32/M01 A3001 RMK A01 T03151010  RH  012%=      5-min Rain = 0
KBO1 141959Z 22011KT 32/M01 A3001 RMK A01 T03161009  RH  012%=      5-min Rain = 0
KBO1 142000Z 19012KT 32/M01 A3001 RMK A01 T03181009  RH  012%=      5-min Rain = 0
KBO1 142001Z 21009KT 32/M01 A3001 RMK A01 T03181011  RH  012%=      5-min Rain = 0
KBO1 142002Z 19012KT 32/M01 A30 RMK A01 T03151010  RH  012%=      5-min Rain = 0
KBO1 142003Z 17010KT 31/M01 A30 RMK A01 T03131013  RH  012%=      5-min Rain = 0
KBO1 142004Z 19009G17KT 31/M01 A30 RMK A01 T03091013  RH  012%=      5-min Rain = 0
KBO1 142005Z 19011G17KT 31/M01 A30 RMK A01 T03101010  RH  013%=      5-min Rain = 0
KBO1 142006Z 18012KT 31/M01 A30 RMK A01 T03131011  RH  012%=      5-min Rain = 0
KBO1 142007Z 21014KT 31/M01 A30 RMK A01 T03121008  RH  013%=      5-min Rain = 0
KBO1 142008Z 21014KT 31/M01 A30 RMK A01 T03111010  RH  013%=      5-min Rain = 0
KBO1 142009Z 21016G23KT 31/M01 A30 RMK A01 T03121005  RH  013%=      5-min Rain = 0
KBO1 142010Z 21019KT 32/M01 A30 RMK A01 T03171005  RH  013%=      5-min Rain = 0
KBO1 142011Z 22015KT 31/M01 A30 RMK A01 T03131014  RH  012%=      5-min Rain = 0
KBO1 142012Z 22015G21KT 31/M01 A30 RMK A01 T03061014  RH  013%=      5-min Rain = 0
KBO1 142013Z 21016KT 30/M01 A30 RMK A01 T03031014  RH  013%=      5-min Rain = 0
KBO1 142014Z 21012KT 30/M01 A30 RMK A01 T03011014  RH  013%=      5-min Rain = 0
KBO1 142015Z 21009KT 30/M01 A30 RMK A01 T03001013  RH  013%=      5-min Rain = 0
KBO1 142016Z 23008KT 30/M01 A30 RMK A01 T03001013  RH  013%=      5-min Rain = 0
KBO1 142017Z 24005KT 30/M01 A30 RMK A01 T03021013  RH  013%=      5-min Rain = 0
KBO1 142018Z 23008KT 31/M01 A30 RMK A01 T03051011  RH  013%=      5-min Rain = 0
KBO1 142019Z 22016G21KT 31/M01 A30 RMK A01 T03091007  RH  013%=      5-min Rain = 0
KBO1 142020Z 22017KT 31/M01 A30 RMK A01 T03131008  RH  013%=      5-min Rain = 0
KBO1 142021Z 23013KT 31/M01 A30 RMK A01 T03121012  RH  012%=      5-min Rain = 0
KBO1 142022Z 23014KT 31/M01 A30 RMK A01 T03071010  RH  013%=      5-min Rain = 0
KBO1 142023Z 24012KT 31/M01 A30 RMK A01 T03061009  RH  013%=      5-min Rain = 0
KBO1 142024Z 23009KT 31/M01 A30 RMK A01 T03051011  RH  013%=      5-min Rain = 0
KBO1 142025Z 22010KT 31/M01 A30 RMK A01 T03051012  RH  013%=      5-min Rain = 0
KBO1 142026Z 23017KT 30/M01 A30 RMK A01 T03011010  RH  013%=      5-min Rain = 0
KBO1 142027Z 22016G21KT 30/M01 A30 RMK A01 T03001010  RH  013%=      5-min Rain = 0
KBO1 142028Z 22013KT 30/M01 A2999 RMK A01 T02991011  RH  013%=      5-min Rain = 0
KBO1 142029Z 21014KT 30/M01 A2999 RMK A01 T03021006  RH  014%=      5-min Rain = 0
KBO1 142030Z 20014KT 31/M00 A2999 RMK A01 T03081004  RH  013%=      5-min Rain = 0
KBO1 142031Z 21017G22KT 31/M00 A2999 RMK A01 T03121004  RH  013%=      5-min Rain = 0
KBO1 142032Z 20019KT 31/M01 A2999 RMK A01 T03111006  RH  013%=      5-min Rain = 0
KBO1 142033Z 19017KT 31/M01 A2999 RMK A01 T03051010  RH  013%=      5-min Rain = 0
KBO1 142034Z 20014KT 30/M01 A2999 RMK A01 T03011006  RH  014%=      5-min Rain = 0
KBO1 142035Z 23013KT 30/M00 A2999 RMK A01 T03011004  RH  014%=      5-min Rain = 0
KBO1 142036Z 22013KT 30/M01 A2999 RMK A01 T03011008  RH  014%=      5-min Rain = 0
KBO1 142037Z 23012KT 30/M01 A2999 RMK A01 T02981009  RH  014%=      5-min Rain = 0
KBO1 142038Z 23011KT 30/M01 A2999 RMK A01 T02961008  RH  014%=      5-min Rain = 0
KBO1 142039Z 23009KT 30/M01 A2999 RMK A01 T02981008  RH  014%=      5-min Rain = 0
KBO1 142040Z 23012KT 30/M00 A2999 RMK A01 T03041003  RH  014%=      5-min Rain = 0
KBO1 142041Z 23009KT 31/M00 A2999 RMK A01 T03081004  RH  013%=      5-min Rain = 0
KBO1 142042Z 23012G17KT 31/00 A2999 RMK A01 T03120001  RH  014%=      5-min Rain = 0
KBO1 142043Z 23014KT 31/00 A2999 RMK A01 T03140000  RH  013%=      5-min Rain = 0
KBO1 142044Z 23012KT 31/00 A2999 RMK A01 T03110001  RH  014%=      5-min Rain = 0
KBO1 142045Z 23013KT 31/M00 A2999 RMK A01 T03081001  RH  014%=      5-min Rain = 0
KBO1 142046Z 23012KT 30/M00 A2999 RMK A01 T03031003  RH  014%=      5-min Rain = 0
KBO1 142047Z 21013KT 30/M01 A2999 RMK A01 T02991005  RH  014%=      5-min Rain = 0
KBO1 142048Z 23011KT 30/M01 A2999 RMK A01 T02971005  RH  014%=      5-min Rain = 0
KBO1 142049Z 23010KT 30/M00 A2999 RMK A01 T02961002  RH  014%=      5-min Rain = 0
KBO1 142050Z 23014G19KT 30/00 A2999 RMK A01 T03030003  RH  014%=      5-min Rain = 0
KBO1 142051Z 24017KT 31/00 A2998 RMK A01 T03130004  RH  014%=      5-min Rain = 0
KBO1 142052Z 23016KT 32/00 A2998 RMK A01 T03170003  RH  013%=      5-min Rain = 0
KBO1 142053Z 22014KT 32/01 A2999 RMK A01 T03190005  RH  013%=      5-min Rain = 0
KBO1 142054Z 23014KT 32/00 A2998 RMK A01 T03210003  RH  013%=      5-min Rain = 0
KBO1 142055Z 23014G19KT 32/00 A2998 RMK A01 T03210001  RH  013%=      5-min Rain = 0
KBO1 142056Z 24013KT 32/00 A2998 RMK A01 T03170001  RH  013%=      5-min Rain = 0
KBO1 142057Z 24011KT 32/00 A2998 RMK A01 T03160001  RH  013%=      5-min Rain = 0
KBO1 142058Z 24010KT 32/00 A2998 RMK A01 T03160000  RH  013%=      5-min Rain = 0
KBO1 142059Z 23015G20KT 32/00 A2998 RMK A01 T03160003  RH  013%=      5-min Rain = 0
KBO1 142100Z 22020KT 32/00 A2998 RMK A01 T03170004  RH  013%=      5-min Rain = 0
KBO1 142101Z 21023KT 32/00 A2998 RMK A01 T03180002  RH  013%=      5-min Rain = 0
KBO1 142102Z 20018G24KT 32/00 A2998 RMK A01 T03160000  RH  013%=      5-min Rain = 0
KBO1 142103Z 22020KT 32/00 A2998 RMK A01 T03150000  RH  013%=      5-min Rain = 0
KBO1 142104Z 22014KT 31/00 A2998 RMK A01 T03140001  RH  013%=      5-min Rain = 0
KBO1 142105Z 23018KT 31/00 A2998 RMK A01 T03140001  RH  013%=      5-min Rain = 0
KBO1 142106Z 22015KT 31/M00 A2998 RMK A01 T03141001  RH  013%=      5-min Rain = 0
KBO1 142107Z 21013KT 31/M00 A2998 RMK A01 T03121001  RH  013%=      5-min Rain = 0
KBO1 142108Z 20013KT 31/M00 A2998 RMK A01 T03121001  RH  013%=      5-min Rain = 0
KBO1 142109Z 20013KT 31/M00 A2998 RMK A01 T03111002  RH  013%=      5-min Rain = 0
KBO1 142110Z 20015KT 31/M00 A2998 RMK A01 T03081003  RH  014%=      5-min Rain = 0
KBO1 142111Z 21013KT 30/M01 A2998 RMK A01 T03031005  RH  014%=      5-min Rain = 0
KBO1 142112Z 23009KT 30/M00 A2998 RMK A01 T03001002  RH  014%=      5-min Rain = 0
KBO1 142113Z 24008KT 30/M00 A2998 RMK A01 T03011003  RH  014%=      5-min Rain = 0
KBO1 142114Z 24008KT 31/M00 A2997 RMK A01 T03051001  RH  014%=      5-min Rain = 0
KBO1 142115Z 23007KT 31/M00 A2997 RMK A01 T03071002  RH  014%=      5-min Rain = 0
KBO1 142116Z 23011KT 31/00 A2997 RMK A01 T03110001  RH  014%=      5-min Rain = 0
KBO1 142117Z 20014KT 31/00 A2997 RMK A01 T031100-0  RH  014%=      5-min Rain = 0
KBO1 142118Z 19015KT 31/00 A2997 RMK A01 T03120002  RH  014%=      5-min Rain = 0
KBO1 142119Z 20012KT 31/M00 A2997 RMK A01 T03111001  RH  013%=      5-min Rain = 0
KBO1 142120Z 20010KT 31/M00 A2997 RMK A01 T03051003  RH  014%=      5-min Rain = 0
KBO1 142121Z 21008KT 30/M00 A2997 RMK A01 T03001004  RH  014%=      5-min Rain = 0
KBO1 142122Z 19006KT 30/M00 A2997 RMK A01 T02971003  RH  014%=      5-min Rain = 0
KBO1 142123Z 20005KT 30/M00 A2997 RMK A01 T02981002  RH  014%=      5-min Rain = 0
KBO1 142124Z 20009KT 30/M00 A2997 RMK A01 T03011002  RH  014%=      5-min Rain = 0
KBO1 142125Z 21012KT 30/M00 A2997 RMK A01 T03021004  RH  014%=      5-min Rain = 0
KBO1 142126Z 22011KT 30/M00 A2997 RMK A01 T03001004  RH  014%=      5-min Rain = 0
KBO1 142127Z 22013KT 30/M00 A2996 RMK A01 T02971004  RH  014%=      5-min Rain = 0
KBO1 142128Z 22013KT 30/M00 A2996 RMK A01 T02951004  RH  014%=      5-min Rain = 0
KBO1 142129Z 24010KT 30/M01 A2996 RMK A01 T02971005  RH  014%=      5-min Rain = 0
KBO1 142130Z 24009KT 30/M01 A2996 RMK A01 T03011005  RH  014%=      5-min Rain = 0
KBO1 142131Z 25012KT 30/M00 A2996 RMK A01 T03041003  RH  014%=      5-min Rain = 0
KBO1 142132Z 26007KT 31/M01 A2996 RMK A01 T03071005  RH  013%=      5-min Rain = 0
KBO1 142133Z 26009KT 31/M00 A2996 RMK A01 T03071002  RH  014%=      5-min Rain = 0
KBO1 142134Z 24008KT 31/M00 A2996 RMK A01 T03091002  RH  014%=      5-min Rain = 0
KBO1 142135Z 22005KT 31/M00 A2995 RMK A01 T03101003  RH  013%=      5-min Rain = 0
KBO1 142136Z 20006KT 31/00 A2995 RMK A01 T031000-0  RH  014%=      5-min Rain = 0
KBO1 142137Z 20009KT 31/00 A2995 RMK A01 T03140003  RH  014%=      5-min Rain = 0
KBO1 142138Z 20014G20KT 32/00 A2995 RMK A01 T03180003  RH  013%=      5-min Rain = 0
KBO1 142139Z 20018G23KT 32/00 A2995 RMK A01 T03210002  RH  013%=      5-min Rain = 0
KBO1 142140Z 21014G19KT 32/M00 A2995 RMK A01 T03211002  RH  013%=      5-min Rain = 0
KBO1 142141Z 21010KT 32/M01 A2995 RMK A01 T03181006  RH  012%=      5-min Rain = 0
KBO1 142142Z 21008KT 31/M00 A2995 RMK A01 T03141003  RH  013%=      5-min Rain = 0
KBO1 142143Z 23012KT 31/M00 A2995 RMK A01 T03141001  RH  013%=      5-min Rain = 0
KBO1 142144Z 23014G20KT 32/M00 A2995 RMK A01 T03171003  RH  013%=      5-min Rain = 0
KBO1 142145Z 24010KT 32/M01 A2995 RMK A01 T03161007  RH  013%=      5-min Rain = 0
KBO1 142146Z 22008KT 32/M01 A2995 RMK A01 T03151007  RH  013%=      5-min Rain = 0
KBO1 142147Z 23008KT 31/M01 A2995 RMK A01 T03141006  RH  013%=      5-min Rain = 0
KBO1 142148Z 23012KT 32/00 A2995 RMK A01 T031700-0  RH  013%=      5-min Rain = 0
KBO1 142149Z 24011KT 32/M00 A2995 RMK A01 T03201003  RH  013%=      5-min Rain = 0
KBO1 142150Z 23014KT 32/M00 A2995 RMK A01 T03211003  RH  013%=      5-min Rain = 0
KBO1 142151Z 23015KT 32/M01 A2995 RMK A01 T03211005  RH  012%=      5-min Rain = 0
KBO1 142152Z 24016KT 32/M01 A2995 RMK A01 T03221006  RH  012%=      5-min Rain = 0
KBO1 142153Z 24017KT 32/M01 A2995 RMK A01 T03191007  RH  012%=      5-min Rain = 0
KBO1 142154Z 24012KT 32/M01 A2995 RMK A01 T03181009  RH  012%=      5-min Rain = 0
KBO1 142155Z 24013KT 32/M01 A2995 RMK A01 T03171008  RH  012%=      5-min Rain = 0
KBO1 142156Z 24012KT 32/M01 A2995 RMK A01 T03181005  RH  013%=      5-min Rain = 0
KBO1 142157Z 24014KT 32/M01 A2995 RMK A01 T03201007  RH  012%=      5-min Rain = 0
KBO1 142158Z 25013KT 32/M01 A2995 RMK A01 T03211009  RH  012%=      5-min Rain = 0
KBO1 142159Z 24010KT 32/M01 A2995 RMK A01 T03191011  RH  012%=      5-min Rain = 0
KBO1 142200Z 23008KT 32/M01 A2995 RMK A01 T03161010  RH  012%=      5-min Rain = 0
KBO1 142201Z 23010G15KT 32/M01 A2994 RMK A01 T03161008  RH  012%=      5-min Rain = 0
KBO1 142202Z 23010KT 32/M01 A2994 RMK A01 T03171008  RH  012%=      5-min Rain = 0
KBO1 142203Z 23013KT 32/M01 A2994 RMK A01 T03161007  RH  012%=      5-min Rain = 0
KBO1 142204Z 23009KT 32/M01 A2994 RMK A01 T03161006  RH  013%=      5-min Rain = 0
KBO1 142205Z 24010KT 32/M01 A2994 RMK A01 T03171006  RH  013%=      5-min Rain = 0
KBO1 142206Z 23012G20KT 32/M00 A2994 RMK A01 T03181003  RH  013%=      5-min Rain = 0
KBO1 142207Z 23015KT 32/M00 A2994 RMK A01 T03211003  RH  013%=      5-min Rain = 0
KBO1 142208Z 23012KT 32/M01 A2994 RMK A01 T03191007  RH  012%=      5-min Rain = 0
KBO1 142209Z 24016G22KT 32/M01 A2994 RMK A01 T03161006  RH  013%=      5-min Rain = 0
KBO1 142210Z 23015KT 32/M01 A2994 RMK A01 T03161005  RH  013%=      5-min Rain = 0
KBO1 142211Z 24010G15KT 32/M00 A2994 RMK A01 T03201002  RH  013%=      5-min Rain = 0
KBO1 142212Z 26013KT 32/M00 A2994 RMK A01 T03231004  RH  012%=      5-min Rain = 0
KBO1 142213Z 27009KT 32/M01 A2994 RMK A01 T03201007  RH  012%=      5-min Rain = 0
KBO1 142214Z 24010KT 32/M01 A2994 RMK A01 T03171008  RH  012%=      5-min Rain = 0
KBO1 142215Z 23011KT 31/M01 A2994 RMK A01 T03141009  RH  012%=      5-min Rain = 0
KBO1 142216Z 23013KT 32/M01 A2994 RMK A01 T03151007  RH  013%=      5-min Rain = 0
KBO1 142217Z 25014KT 32/M00 A2994 RMK A01 T03171004  RH  013%=      5-min Rain = 0
KBO1 142218Z 24017KT 32/M00 A2994 RMK A01 T03211004  RH  012%=      5-min Rain = 0
KBO1 142219Z 24016KT 32/M01 A2994 RMK A01 T03221007  RH  012%=      5-min Rain = 0
KBO1 142220Z 23015KT 32/M01 A2994 RMK A01 T03211007  RH  012%=      5-min Rain = 0
KBO1 142221Z 22016KT 32/M01 A2994 RMK A01 T03201005  RH  012%=      5-min Rain = 0
KBO1 142222Z 21016KT 32/M01 A2994 RMK A01 T03161007  RH  013%=      5-min Rain = 0
KBO1 142223Z 21015KT 31/M01 A2994 RMK A01 T03141005  RH  013%=      5-min Rain = 0
KBO1 142224Z 21015KT 31/M01 A2994 RMK A01 T03121005  RH  013%=      5-min Rain = 0
KBO1 142225Z 21014KT 31/M01 A2994 RMK A01 T03091006  RH  013%=      5-min Rain = 0
KBO1 142226Z 21014KT 31/M01 A2994 RMK A01 T03091007  RH  013%=      5-min Rain = 0
KBO1 142227Z 20013KT 31/M01 A2994 RMK A01 T03121007  RH  013%=      5-min Rain = 0
KBO1 142228Z 20009KT 31/M01 A2994 RMK A01 T03131009  RH  013%=      5-min Rain = 0
KBO1 142229Z 20009KT 31/M01 A2994 RMK A01 T03141008  RH  013%=      5-min Rain = 0
KBO1 142230Z 20012KT 32/M01 A2994 RMK A01 T03151005  RH  013%=      5-min Rain = 0
KBO1 142231Z 21017KT 32/M01 A2993 RMK A01 T03161006  RH  013%=      5-min Rain = 0
KBO1 142232Z 22016KT 32/M00 A2993 RMK A01 T03161004  RH  013%=      5-min Rain = 0
KBO1 142233Z 22015KT 32/M01 A2993 RMK A01 T03171005  RH  013%=      5-min Rain = 0
KBO1 142234Z 21015KT 32/M01 A2994 RMK A01 T03171005  RH  013%=      5-min Rain = 0
KBO1 142235Z 21014KT 32/M01 A2993 RMK A01 T03171007  RH  012%=      5-min Rain = 0
KBO1 142236Z 21017G23KT 32/M00 A2993 RMK A01 T03151004  RH  013%=      5-min Rain = 0
KBO1 142237Z 22018KT 32/M01 A2993 RMK A01 T03171011  RH  012%=      5-min Rain = 0
KBO1 142238Z 23014KT 32/M01 A2994 RMK A01 T03171011  RH  012%=      5-min Rain = 0
KBO1 142239Z 23016KT 32/M01 A2994 RMK A01 T03171009  RH  012%=      5-min Rain = 0
KBO1 142240Z 22016KT 32/M01 A2993 RMK A01 T03171009  RH  012%=      5-min Rain = 0
KBO1 142241Z 22012KT 32/M01 A2993 RMK A01 T03171007  RH  012%=      5-min Rain = 0
KBO1 142242Z 23013KT 32/M01 A2993 RMK A01 T03181010  RH  012%=      5-min Rain = 0
KBO1 142243Z 23017KT 32/M01 A2993 RMK A01 T03181012  RH  012%=      5-min Rain = 0
KBO1 142244Z 23016KT 32/M01 A2993 RMK A01 T03161014  RH  012%=      5-min Rain = 0
KBO1 142245Z 22015KT 32/M01 A2993 RMK A01 T03161011  RH  012%=      5-min Rain = 0
KBO1 142246Z 22016KT 32/M01 A2993 RMK A01 T03161010  RH  012%=      5-min Rain = 0
KBO1 142247Z 22015KT 32/M01 A2993 RMK A01 T03151009  RH  012%=      5-min Rain = 0
KBO1 142248Z 22013KT 31/M01 A2993 RMK A01 T03141010  RH  012%=      5-min Rain = 0
KBO1 142249Z 23011KT 31/M01 A2993 RMK A01 T03141009  RH  012%=      5-min Rain = 0
KBO1 142250Z 21012KT 32/M01 A2993 RMK A01 T03151007  RH  013%=      5-min Rain = 0
KBO1 142251Z 20011KT 32/M01 A2993 RMK A01 T03161007  RH  012%=      5-min Rain = 0
KBO1 142252Z 20011KT 32/M01 A2993 RMK A01 T03161005  RH  013%=      5-min Rain = 0
KBO1 142253Z 20010KT 32/M01 A2993 RMK A01 T03181005  RH  013%=      5-min Rain = 0
KBO1 142254Z 19012KT 32/M01 A2993 RMK A01 T03181008  RH  012%=      5-min Rain = 0
KBO1 142255Z 20012KT 32/M01 A2993 RMK A01 T03161008  RH  012%=      5-min Rain = 0
KBO1 142256Z 20012KT 31/M01 A2993 RMK A01 T03141006  RH  013%=      5-min Rain = 0
KBO1 142257Z 21014G19KT 32/M01 A2993 RMK A01 T03151007  RH  013%=      5-min Rain = 0
KBO1 142258Z 21016KT 32/M01 A2993 RMK A01 T03181006  RH  012%=      5-min Rain = 0
KBO1 142259Z 22019KT 32/M01 A2993 RMK A01 T03191012  RH  012%=      5-min Rain = 0
KBO1 142300Z 23020KT 32/M01 A2993 RMK A01 T03181014  RH  012%=      5-min Rain = 0
KBO1 142301Z 23015KT 32/M02 A2993 RMK A01 T03161015  RH  012%=      5-min Rain = 0
KBO1 142302Z 24012KT 32/M02 A2993 RMK A01 T03151015  RH  012%=      5-min Rain = 0
KBO1 142303Z 22013G19KT 32/M02 A2993 RMK A01 T03151015  RH  012%=      5-min Rain = 0
KBO1 142304Z 20009KT 32/M01 A2993 RMK A01 T03161011  RH  012%=      5-min Rain = 0
KBO1 142305Z 20007KT 31/M01 A2993 RMK A01 T03131012  RH  012%=      5-min Rain = 0
KBO1 142306Z 21008KT 31/M01 A2993 RMK A01 T03121010  RH  012%=      5-min Rain = 0
KBO1 142307Z 21011KT 31/M01 A2992 RMK A01 T03131009  RH  013%=      5-min Rain = 0
KBO1 142308Z 25014KT 31/M01 A2992 RMK A01 T03141009  RH  013%=      5-min Rain = 0
KBO1 142309Z 24014KT 32/M01 A2992 RMK A01 T03151012  RH  012%=      5-min Rain = 0
KBO1 142310Z 22017KT 32/M01 A2992 RMK A01 T03151008  RH  012%=      5-min Rain = 0
KBO1 142311Z 23017KT 32/M01 A2992 RMK A01 T03161012  RH  012%=      5-min Rain = 0
KBO1 142312Z 24010G15KT 32/M02 A2993 RMK A01 T03151017  RH  012%=      5-min Rain = 0
KBO1 142313Z 23008KT 31/M02 A2992 RMK A01 T03141015  RH  012%=      5-min Rain = 0
KBO1 142314Z 22010KT 31/M01 A2992 RMK A01 T03141013  RH  012%=      5-min Rain = 0
KBO1 142315Z 22009KT 31/M01 A2992 RMK A01 T03141012  RH  012%=      5-min Rain = 0
KBO1 142316Z 24008KT 31/M01 A2992 RMK A01 T03131011  RH  012%=      5-min Rain = 0
KBO1 142317Z 25009KT 31/M01 A2992 RMK A01 T03131011  RH  012%=      5-min Rain = 0
KBO1 142318Z 26007KT 31/M01 A2992 RMK A01 T03121011  RH  012%=      5-min Rain = 0
KBO1 142319Z 26008KT 31/M01 A2992 RMK A01 T03131009  RH  013%=      5-min Rain = 0
KBO1 142320Z 25011KT 31/M01 A2992 RMK A01 T03141008  RH  013%=      5-min Rain = 0
KBO1 142321Z 25013KT 32/M01 A2992 RMK A01 T03151009  RH  012%=      5-min Rain = 0
KBO1 142322Z 23013KT 32/M01 A2992 RMK A01 T03161012  RH  012%=      5-min Rain = 0
KBO1 142323Z 22012KT 32/M01 A2992 RMK A01 T03161008  RH  012%=      5-min Rain = 0
KBO1 142324Z 20014KT 32/M00 A2992 RMK A01 T03161003  RH  013%=      5-min Rain = 0
KBO1 142325Z 21014KT 32/M00 A2992 RMK A01 T03171004  RH  013%=      5-min Rain = 0
KBO1 142326Z 20015KT 32/M00 A2991 RMK A01 T03161003  RH  013%=      5-min Rain = 0
KBO1 142327Z 21015KT 32/M00 A2992 RMK A01 T03151003  RH  013%=      5-min Rain = 0
KBO1 142328Z 22014KT 32/M00 A2992 RMK A01 T03151001  RH  013%=      5-min Rain = 0
KBO1 142329Z 21013KT 32/M00 A2992 RMK A01 T03161003  RH  013%=      5-min Rain = 0
KBO1 142330Z 21013KT 32/M00 A2992 RMK A01 T03151004  RH  013%=      5-min Rain = 0
KBO1 142331Z 22010KT 31/M01 A2992 RMK A01 T03141005  RH  013%=      5-min Rain = 0
KBO1 142332Z 25011KT 31/M00 A2992 RMK A01 T03141004  RH  013%=      5-min Rain = 0
KBO1 142333Z 24009KT 31/M01 A2991 RMK A01 T03141008  RH  013%=      5-min Rain = 0
KBO1 142334Z 24009KT 31/M01 A2992 RMK A01 T03141005  RH  013%=      5-min Rain = 0
KBO1 142335Z 23009KT 31/M01 A2991 RMK A01 T03141006  RH  013%=      5-min Rain = 0
KBO1 142336Z 21008KT 31/M01 A2991 RMK A01 T03141005  RH  013%=      5-min Rain = 0
KBO1 142337Z 27006KT 31/M01 A2991 RMK A01 T03131005  RH  013%=      5-min Rain = 0
KBO1 142338Z 26010KT 31/00 A2991 RMK A01 T03140000  RH  013%=      5-min Rain = 0
KBO1 142339Z 24010KT 32/M01 A2991 RMK A01 T03161006  RH  013%=      5-min Rain = 0
KBO1 142340Z 24012KT 32/M01 A2991 RMK A01 T03151007  RH  013%=      5-min Rain = 0
KBO1 142341Z 23014KT 31/M01 A2991 RMK A01 T03141008  RH  013%=      5-min Rain = 0
KBO1 142342Z 24013KT 31/M01 A2991 RMK A01 T03131008  RH  013%=      5-min Rain = 0
KBO1 142343Z 24012KT 31/M01 A2991 RMK A01 T03121010  RH  013%=      5-min Rain = 0
KBO1 142344Z 24014KT 31/M01 A2991 RMK A01 T03121008  RH  013%=      5-min Rain = 0
KBO1 142345Z 24013KT 31/M01 A2991 RMK A01 T03111008  RH  013%=      5-min Rain = 0
KBO1 142346Z 25011KT 31/M01 A2991 RMK A01 T03111006  RH  013%=      5-min Rain = 0
KBO1 142347Z 25009KT 31/M01 A2991 RMK A01 T03101006  RH  013%=      5-min Rain = 0
KBO1 142348Z 26010KT 31/M01 A2991 RMK A01 T03101006  RH  013%=      5-min Rain = 0
KBO1 142349Z 25006KT 31/M01 A2991 RMK A01 T03091007  RH  013%=      5-min Rain = 0
KBO1 142350Z 24005KT 31/M01 A2991 RMK A01 T03091006  RH  013%=      5-min Rain = 0
KBO1 142351Z 24005KT 31/M01 A2991 RMK A01 T03091006  RH  013%=      5-min Rain = 0
KBO1 142352Z 24007KT 31/M00 A2991 RMK A01 T03111003  RH  013%=      5-min Rain = 0
KBO1 142353Z 24010KT 31/M01 A2991 RMK A01 T03121007  RH  013%=      5-min Rain = 0
KBO1 142354Z 24011KT 31/M01 A2991 RMK A01 T03131008  RH  013%=      5-min Rain = 0
KBO1 142355Z 24015KT 31/M01 A2991 RMK A01 T03131012  RH  012%=      5-min Rain = 0
KBO1 142356Z 24013KT 31/M02 A2991 RMK A01 T03131015  RH  012%=      5-min Rain = 0
KBO1 142357Z 23016KT 31/M02 A2991 RMK A01 T03121016  RH  012%=      5-min Rain = 0
KBO1 142358Z 23014KT 31/M02 A2991 RMK A01 T03111017  RH  012%=      5-min Rain = 0
KBO1 142359Z 22011KT 31/M02 A2991 RMK A01 T03111017  RH  012%=      5-min Rain = 0
KBO1 150000Z 23010KT 31/M02 A2991 RMK A01 T03101015  RH  012%=      5-min Rain = 0
KBO1 150001Z 24012KT 31/M02 A2991 RMK A01 T03101016  RH  012%=      5-min Rain = 0
KBO1 150002Z 23011KT 31/M02 A2991 RMK A01 T03101015  RH  012%=      5-min Rain = 0
KBO1 150003Z 22012KT 31/M02 A2991 RMK A01 T03101015  RH  012%=      5-min Rain = 0
KBO1 150004Z 22012KT 31/M02 A2991 RMK A01 T03091017  RH  012%=      5-min Rain = 0
KBO1 150005Z 22013KT 31/M02 A2991 RMK A01 T03081017  RH  012%=      5-min Rain = 0
KBO1 150006Z 22011KT 31/M02 A2991 RMK A01 T03081017  RH  012%=      5-min Rain = 0
KBO1 150007Z 23010KT 31/M02 A2991 RMK A01 T03071017  RH  012%=      5-min Rain = 0
KBO1 150008Z 23008KT 31/M02 A2991 RMK A01 T03071017  RH  012%=      5-min Rain = 0
KBO1 150009Z 24007KT 31/M01 A2991 RMK A01 T03081013  RH  013%=      5-min Rain = 0
KBO1 150010Z 23006KT 31/M01 A2991 RMK A01 T03091014  RH  012%=      5-min Rain = 0
KBO1 150011Z 23005KT 31/M01 A2991 RMK A01 T03101013  RH  012%=      5-min Rain = 0
KBO1 150012Z 24007KT 31/M02 A2991 RMK A01 T03101016  RH  012%=      5-min Rain = 0
KBO1 150013Z 21010KT 31/M01 A2991 RMK A01 T03101014  RH  012%=      5-min Rain = 0
KBO1 150014Z 20012KT 31/M01 A2991 RMK A01 T03101013  RH  012%=      5-min Rain = 0
KBO1 150015Z 22013KT 31/M01 A2991 RMK A01 T03091013  RH  012%=      5-min Rain = 0
KBO1 150016Z 24012KT 31/M02 A2991 RMK A01 T03081015  RH  012%=      5-min Rain = 0
KBO1 150017Z 24010KT 31/M02 A2991 RMK A01 T03081016  RH  012%=      5-min Rain = 0
KBO1 150018Z 24011KT 31/M02 A2991 RMK A01 T03081015  RH  012%=      5-min Rain = 0
KBO1 150019Z 23012KT 31/M02 A2991 RMK A01 T03081017  RH  012%=      5-min Rain = 0
KBO1 150020Z 24013KT 31/M02 A2991 RMK A01 T03081020  RH  012%=      5-min Rain = 0
KBO1 150021Z 22010KT 31/M02 A2991 RMK A01 T03071018  RH  012%=      5-min Rain = 0
KBO1 150022Z 23010KT 31/M02 A2991 RMK A01 T03061017  RH  012%=      5-min Rain = 0
KBO1 150023Z 22010KT 31/M02 A2991 RMK A01 T03061019  RH  012%=      5-min Rain = 0
KBO1 150024Z 21010KT 31/M02 A2991 RMK A01 T03061019  RH  012%=      5-min Rain = 0
KBO1 150025Z 21010KT 31/M02 A2991 RMK A01 T03051018  RH  012%=      5-min Rain = 0
KBO1 150026Z 22009KT 31/M02 A2991 RMK A01 T03051019  RH  012%=      5-min Rain = 0
KBO1 150027Z 21008KT 30/M02 A2991 RMK A01 T03041019  RH  012%=      5-min Rain = 0
KBO1 150028Z 21007KT 30/M02 A2991 RMK A01 T03041016  RH  013%=      5-min Rain = 0
KBO1 150029Z 21007KT 30/M02 A2991 RMK A01 T03041016  RH  013%=      5-min Rain = 0
KBO1 150030Z 21007KT 30/M02 A2991 RMK A01 T03041017  RH  012%=      5-min Rain = 0
KBO1 150031Z 21008KT 30/M02 A2991 RMK A01 T03041018  RH  012%=      5-min Rain = 0
KBO1 150032Z 21009KT 30/M02 A2991 RMK A01 T03041018  RH  012%=      5-min Rain = 0
KBO1 150033Z 22010KT 30/M02 A2991 RMK A01 T03041020  RH  012%=      5-min Rain = 0
KBO1 150034Z 22010KT 30/M02 A2991 RMK A01 T03031019  RH  012%=      5-min Rain = 0
KBO1 150035Z 21011KT 30/M02 A2991 RMK A01 T03031019  RH  012%=      5-min Rain = 0
KBO1 150036Z 21011KT 30/M02 A2991 RMK A01 T03031020  RH  012%=      5-min Rain = 0
KBO1 150037Z 22009KT 30/M02 A2991 RMK A01 T03031021  RH  012%=      5-min Rain = 0
KBO1 150038Z 22008KT 30/M02 A2991 RMK A01 T03021019  RH  012%=      5-min Rain = 0
KBO1 150039Z 22010KT 30/M02 A2991 RMK A01 T03021020  RH  012%=      5-min Rain = 0
KBO1 150040Z 22011KT 30/M02 A2991 RMK A01 T03021021  RH  012%=      5-min Rain = 0
KBO1 150041Z 23009KT 30/M02 A2991 RMK A01 T03021022  RH  012%=      5-min Rain = 0
KBO1 150042Z 23008KT 30/M02 A2991 RMK A01 T03011020  RH  012%=      5-min Rain = 0
KBO1 150043Z 23009KT 30/M02 A2991 RMK A01 T03011019  RH  012%=      5-min Rain = 0
KBO1 150044Z 23009KT 30/M02 A2991 RMK A01 T03011019  RH  012%=      5-min Rain = 0
KBO1 150045Z 23009KT 30/M02 A2991 RMK A01 T03011019  RH  012%=      5-min Rain = 0
KBO1 150046Z 24008KT 30/M02 A2991 RMK A01 T03011019  RH  012%=      5-min Rain = 0
KBO1 150047Z 24008KT 30/M02 A2991 RMK A01 T03001017  RH  013%=      5-min Rain = 0
KBO1 150048Z 24008KT 30/M02 A2991 RMK A01 T03001016  RH  013%=      5-min Rain = 0
KBO1 150049Z 24008KT 30/M02 A2991 RMK A01 T02991018  RH  013%=      5-min Rain = 0
KBO1 150050Z 24008KT 30/M02 A2991 RMK A01 T02991019  RH  013%=      5-min Rain = 0
KBO1 150051Z 24008KT 30/M02 A2991 RMK A01 T02991018  RH  013%=      5-min Rain = 0
KBO1 150052Z 23007KT 30/M02 A2991 RMK A01 T02981018  RH  013%=      5-min Rain = 0
KBO1 150053Z 24007KT 30/M02 A2991 RMK A01 T02981016  RH  013%=      5-min Rain = 0
KBO1 150054Z 23006KT 30/M01 A2991 RMK A01 T02971014  RH  013%=      5-min Rain = 0
KBO1 150055Z 23007KT 30/M01 A2991 RMK A01 T02961014  RH  013%=      5-min Rain = 0
KBO1 150056Z 23006KT 30/M01 A2991 RMK A01 T02961014  RH  013%=      5-min Rain = 0
KBO1 150057Z 23006KT 30/M01 A2991 RMK A01 T02951013  RH  013%=      5-min Rain = 0
KBO1 150058Z 23006KT 29/M01 A2991 RMK A01 T02941013  RH  014%=      5-min Rain = 0
KBO1 150059Z 23007KT 29/M01 A2991 RMK A01 T02941011  RH  014%=      5-min Rain = 0
KBO1 150100Z 24007KT 29/M01 A2991 RMK A01 T02921012  RH  014%=      5-min Rain = 0
KBO1 150101Z 24008KT 29/M01 A2991 RMK A01 T02921013  RH  014%=      5-min Rain = 0
KBO1 150102Z 22007KT 29/M02 A2991 RMK A01 T02911017  RH  013%=      5-min Rain = 0
KBO1 150103Z 22007KT 29/M02 A2991 RMK A01 T02911015  RH  014%=      5-min Rain = 0
KBO1 150104Z 22006KT 29/M02 A2991 RMK A01 T02901015  RH  014%=      5-min Rain = 0
KBO1 150105Z 22006KT 29/M01 A2991 RMK A01 T02891013  RH  014%=      5-min Rain = 0
KBO1 150106Z 23005KT 29/M01 A2991 RMK A01 T02881012  RH  014%=      5-min Rain = 0
KBO1 150107Z 23006KT 29/M01 A2991 RMK A01 T02871011  RH  014%=      5-min Rain = 0
KBO1 150108Z 23005KT 29/M01 A2991 RMK A01 T02851011  RH  015%=      5-min Rain = 0
KBO1 150109Z 23005KT 28/M01 A2991 RMK A01 T02841010  RH  015%=      5-min Rain = 0
KBO1 150110Z 23005KT 28/M01 A2991 RMK A01 T02831009  RH  015%=      5-min Rain = 0
KBO1 150111Z 24005KT 28/M01 A2991 RMK A01 T02821009  RH  015%=      5-min Rain = 0
KBO1 150112Z 24006KT 28/M01 A2991 RMK A01 T02811009  RH  015%=      5-min Rain = 0
KBO1 150113Z 24006KT 28/M01 A2992 RMK A01 T02811009  RH  015%=      5-min Rain = 0
KBO1 150114Z 23007KT 28/M01 A2992 RMK A01 T02801010  RH  015%=      5-min Rain = 0
KBO1 150115Z 24007KT 28/M01 A2992 RMK A01 T02791011  RH  015%=      5-min Rain = 0
KBO1 150116Z 24007KT 28/M01 A2992 RMK A01 T02781011  RH  015%=      5-min Rain = 0
KBO1 150117Z 23006KT 28/M01 A2992 RMK A01 T02771011  RH  015%=      5-min Rain = 0
KBO1 150118Z 23006KT 28/M01 A2992 RMK A01 T02751012  RH  015%=      5-min Rain = 0
KBO1 150119Z 23006KT 27/M01 A2992 RMK A01 T02741011  RH  015%=      5-min Rain = 0
KBO1 150120Z 23006KT 27/M01 A2992 RMK A01 T02731011  RH  016%=      5-min Rain = 0
KBO1 150121Z 23006KT 27/M01 A2992 RMK A01 T02711011  RH  016%=      5-min Rain = 0
KBO1 150122Z 23006KT 27/M01 A2992 RMK A01 T02701011  RH  016%=      5-min Rain = 0
KBO1 150123Z 23005KT 27/M01 A2992 RMK A01 T02691011  RH  016%=      5-min Rain = 0
KBO1 150124Z 23005KT 27/M01 A2992 RMK A01 T02671011  RH  016%=      5-min Rain = 0
KBO1 150125Z 23005KT 27/M01 A2992 RMK A01 T02651010  RH  016%=      5-min Rain = 0
KBO1 150126Z 22005KT 26/M01 A2992 RMK A01 T02631010  RH  017%=      5-min Rain = 0
KBO1 150127Z 23005KT 26/M01 A2992 RMK A01 T02621010  RH  017%=      5-min Rain = 0
KBO1 150128Z 23006KT 26/M01 A2992 RMK A01 T02601010  RH  017%=      5-min Rain = 0
KBO1 150129Z 23005KT 26/M01 A2992 RMK A01 T02591010  RH  017%=      5-min Rain = 0
KBO1 150130Z 23005KT 26/M01 A2992 RMK A01 T02581010  RH  017%=      5-min Rain = 0
KBO1 150131Z 23005KT 26/M01 A2992 RMK A01 T02571010  RH  017%=      5-min Rain = 0
KBO1 150132Z 23005KT 26/M01 A2992 RMK A01 T02561010  RH  017%=      5-min Rain = 0
KBO1 150133Z 23005KT 26/M01 A2992 RMK A01 T02561011  RH  017%=      5-min Rain = 0
KBO1 150134Z 23005KT 26/M01 A2992 RMK A01 T02561010  RH  017%=      5-min Rain = 0
KBO1 150135Z 23005KT 26/M01 A2992 RMK A01 T02551011  RH  017%=      5-min Rain = 0
KBO1 150136Z 22005KT 26/M01 A2992 RMK A01 T02551011  RH  017%=      5-min Rain = 0
KBO1 150137Z 23005KT 26/M01 A2992 RMK A01 T02551011  RH  017%=      5-min Rain = 0
KBO1 150138Z 23005KT 26/M01 A2992 RMK A01 T02551010  RH  017%=      5-min Rain = 0
KBO1 150139Z 23005KT 26/M01 A2992 RMK A01 T02551010  RH  017%=      5-min Rain = 0
KBO1 150140Z 22004KT 25/M01 A2992 RMK A01 T02541010  RH  018%=      5-min Rain = 0
KBO1 150141Z 22005KT 25/M01 A2993 RMK A01 T02531010  RH  018%=      5-min Rain = 0
KBO1 150142Z 23004KT 25/M01 A2993 RMK A01 T02521010  RH  018%=      5-min Rain = 0
KBO1 150143Z 22005KT 25/M01 A2993 RMK A01 T02511009  RH  018%=      5-min Rain = 0
KBO1 150144Z 22004KT 25/M01 A2993 RMK A01 T02501009  RH  018%=      5-min Rain = 0
KBO1 150145Z 22004KT 25/M01 A2993 RMK A01 T02491009  RH  018%=      5-min Rain = 0
KBO1 150146Z 22004KT 25/M01 A2993 RMK A01 T02481009  RH  018%=      5-min Rain = 0
KBO1 150147Z 22004KT 25/M01 A2993 RMK A01 T02471010  RH  018%=      5-min Rain = 0
KBO1 150148Z 22004KT 25/M01 A2993 RMK A01 T02471010  RH  018%=      5-min Rain = 0
KBO1 150149Z 22005KT 25/M01 A2993 RMK A01 T02461011  RH  018%=      5-min Rain = 0
KBO1 150150Z 21005KT 25/M01 A2993 RMK A01 T02461012  RH  018%=      5-min Rain = 0
KBO1 150151Z 21005KT 25/M01 A2993 RMK A01 T02461011  RH  018%=      5-min Rain = 0
KBO1 150152Z 21005KT 25/M01 A2993 RMK A01 T02461012  RH  018%=      5-min Rain = 0
KBO1 150153Z 20005KT 25/M01 A2993 RMK A01 T02461013  RH  018%=      5-min Rain = 0
KBO1 150154Z 21005KT 25/M01 A2993 RMK A01 T02461014  RH  018%=      5-min Rain = 0
KBO1 150155Z 20005KT 25/M01 A2993 RMK A01 T02471014  RH  018%=      5-min Rain = 0
KBO1 150156Z 21006KT 25/M01 A2993 RMK A01 T02471014  RH  018%=      5-min Rain = 0
KBO1 150157Z 20005KT 25/M01 A2993 RMK A01 T02461014  RH  018%=      5-min Rain = 0
KBO1 150158Z 20005KT 25/M01 A2994 RMK A01 T02461014  RH  018%=      5-min Rain = 0
KBO1 150159Z 20005KT 25/M01 A2994 RMK A01 T02451014  RH  018%=      5-min Rain = 0
KBO1 150200Z 20006KT 24/M01 A2994 RMK A01 T02431013  RH  018%=      5-min Rain = 0
KBO1 150201Z 20005KT 24/M01 A2994 RMK A01 T02401013  RH  019%=      5-min Rain = 0
KBO1 150202Z 21005KT 24/M01 A2994 RMK A01 T02381012  RH  019%=      5-min Rain = 0
KBO1 150203Z 21005KT 24/M01 A2994 RMK A01 T02361012  RH  019%=      5-min Rain = 0
KBO1 150204Z 21005KT 23/M01 A2994 RMK A01 T02341012  RH  019%=      5-min Rain = 0
KBO1 150205Z 20005KT 23/M01 A2994 RMK A01 T02331011  RH  020%=      5-min Rain = 0
KBO1 150206Z 20005KT 23/M01 A2994 RMK A01 T02321012  RH  020%=      5-min Rain = 0
KBO1 150207Z 20005KT 23/M01 A2994 RMK A01 T02311013  RH  020%=      5-min Rain = 0
KBO1 150208Z 21005KT 23/M01 A2994 RMK A01 T02331013  RH  019%=      5-min Rain = 0
KBO1 150209Z 21005KT 23/M01 A2994 RMK A01 T02321011  RH  020%=      5-min Rain = 0
KBO1 150210Z 21005KT 23/M01 A2994 RMK A01 T02291010  RH  020%=      5-min Rain = 0
KBO1 150211Z 20005KT 23/M01 A2994 RMK A01 T02281012  RH  020%=      5-min Rain = 0
KBO1 150212Z 20005KT 23/M01 A2994 RMK A01 T02271011  RH  020%=      5-min Rain = 0
KBO1 150213Z 20005KT 23/M01 A2994 RMK A01 T02261011  RH  020%=      5-min Rain = 0
KBO1 150214Z 21005KT 23/M01 A2994 RMK A01 T02261013  RH  020%=      5-min Rain = 0
KBO1 150215Z 21005KT 23/M01 A2994 RMK A01 T02281014  RH  020%=      5-min Rain = 0
KBO1 150216Z 20005KT 23/M01 A2994 RMK A01 T02311014  RH  019%=      5-min Rain = 0
KBO1 150217Z 20005KT 23/M01 A2994 RMK A01 T02331014  RH  019%=      5-min Rain = 0
KBO1 150218Z 20005KT 23/M01 A2994 RMK A01 T02341014  RH  019%=      5-min Rain = 0
KBO1 150219Z 20005KT 23/M01 A2994 RMK A01 T02341014  RH  019%=      5-min Rain = 0
KBO1 150220Z 21004KT 23/M01 A2994 RMK A01 T02341014  RH  019%=      5-min Rain = 0
KBO1 150221Z 21005KT 24/M01 A2994 RMK A01 T02351014  RH  019%=      5-min Rain = 0
KBO1 150222Z 21005KT 24/M02 A2994 RMK A01 T02361016  RH  019%=      5-min Rain = 0
KBO1 150223Z 21005KT 24/M02 A2994 RMK A01 T02371017  RH  018%=      5-min Rain = 0
KBO1 150224Z 21005KT 24/M02 A2994 RMK A01 T02381018  RH  018%=      5-min Rain = 0
KBO1 150225Z 21005KT 24/M02 A2995 RMK A01 T02391019  RH  018%=      5-min Rain = 0
KBO1 150226Z 21005KT 24/M02 A2995 RMK A01 T02411019  RH  018%=      5-min Rain = 0
KBO1 150227Z 21005KT 24/M02 A2995 RMK A01 T02431018  RH  018%=      5-min Rain = 0
KBO1 150228Z 21005KT 24/M02 A2995 RMK A01 T02441018  RH  018%=      5-min Rain = 0
KBO1 150229Z 21005KT 24/M02 A2995 RMK A01 T02431018  RH  018%=      5-min Rain = 0
KBO1 150230Z 21005KT 24/M02 A2995 RMK A01 T02421018  RH  018%=      5-min Rain = 0
KBO1 150231Z 21005KT 24/M02 A2995 RMK A01 T02421019  RH  018%=      5-min Rain = 0
KBO1 150232Z 21005KT 24/M02 A2995 RMK A01 T02421019  RH  018%=      5-min Rain = 0
KBO1 150233Z 21006KT 24/M02 A2995 RMK A01 T02411019  RH  018%=      5-min Rain = 0
KBO1 150234Z 21005KT 24/M02 A2995 RMK A01 T02401018  RH  018%=      5-min Rain = 0
KBO1 150235Z 21006KT 24/M02 A2995 RMK A01 T02381018  RH  018%=      5-min Rain = 0
KBO1 150236Z 21006KT 24/M02 A2995 RMK A01 T02351017  RH  019%=      5-min Rain = 0
KBO1 150237Z 21006KT 23/M02 A2995 RMK A01 T02331018  RH  019%=      5-min Rain = 0
KBO1 150238Z 21005KT 23/M02 A2995 RMK A01 T02311017  RH  019%=      5-min Rain = 0
KBO1 150239Z 21005KT 23/M02 A2995 RMK A01 T02291016  RH  019%=      5-min Rain = 0
KBO1 150240Z 21006KT 23/M02 A2995 RMK A01 T02281017  RH  019%=      5-min Rain = 0
KBO1 150241Z 21006KT 23/M02 A2995 RMK A01 T02271018  RH  019%=      5-min Rain = 0
KBO1 150242Z 21006KT 23/M02 A2995 RMK A01 T02271017  RH  020%=      5-min Rain = 0
KBO1 150243Z 21006KT 23/M02 A2995 RMK A01 T02251016  RH  020%=      5-min Rain = 0
KBO1 150244Z 20006KT 22/M02 A2995 RMK A01 T02231016  RH  020%=      5-min Rain = 0
KBO1 150245Z 20006KT 22/M02 A2995 RMK A01 T02211016  RH  021%=      5-min Rain = 0
KBO1 150246Z 20007KT 22/M02 A2995 RMK A01 T02191015  RH  021%=      5-min Rain = 0
KBO1 150247Z 18007KT 22/M01 A2995 RMK A01 T02161014  RH  021%=      5-min Rain = 0
KBO1 150248Z 18008KT 21/M01 A2996 RMK A01 T02141013  RH  022%=      5-min Rain = 0
KBO1 150249Z 19009KT 21/M01 A2996 RMK A01 T02111011  RH  023%=      5-min Rain = 0
KBO1 150250Z 19008KT 21/M01 A2996 RMK A01 T02071012  RH  023%=      5-min Rain = 0
KBO1 150251Z 19009KT 21/M01 A2996 RMK A01 T02051011  RH  023%=      5-min Rain = 0
KBO1 150252Z 19009KT 20/M01 A2996 RMK A01 T02031010  RH  024%=      5-min Rain = 0
KBO1 150253Z 19009KT 20/M01 A2996 RMK A01 T02001009  RH  024%=      5-min Rain = 0
KBO1 150254Z 19008KT 20/M01 A2996 RMK A01 T01991010  RH  025%=      5-min Rain = 0
KBO1 150255Z 19008KT 20/M01 A2996 RMK A01 T01981009  RH  025%=      5-min Rain = 0
KBO1 150256Z 19009KT 20/M01 A2996 RMK A01 T01981008  RH  025%=      5-min Rain = 0
KBO1 150257Z 19009KT 20/M01 A2996 RMK A01 T01981008  RH  025%=      5-min Rain = 0
KBO1 150258Z 19008KT 20/M01 A2996 RMK A01 T01971007  RH  025%=      5-min Rain = 0
KBO1 150259Z 19008KT 20/M01 A2996 RMK A01 T01961007  RH  025%=      5-min Rain = 0
KBO1 150300Z 18008KT 20/M01 A2996 RMK A01 T01961007  RH  026%=      5-min Rain = 0
KBO1 150301Z 18008KT 20/M01 A2996 RMK A01 T01951007  RH  026%=      5-min Rain = 0
KBO1 150302Z 18008KT 20/M01 A2996 RMK A01 T01951007  RH  026%=      5-min Rain = 0
KBO1 150303Z 17008KT 19/M01 A2996 RMK A01 T01941006  RH  026%=      5-min Rain = 0
KBO1 150304Z 15009KT 19/M00 A2997 RMK A01 T01941004  RH  026%=      5-min Rain = 0
KBO1 150305Z 11015KT 19/01 A2997 RMK A01 T01920005  RH  029%=      5-min Rain = 0
KBO1 150306Z 12015KT 19/03 A2997 RMK A01 T01930034  RH  035%=      5-min Rain = 0
KBO1 150307Z 13016KT 20/05 A2997 RMK A01 T02000045  RH  036%=      5-min Rain = 0
KBO1 150308Z 13016KT 21/06 A2997 RMK A01 T02050055  RH  037%=      5-min Rain = 0
KBO1 150309Z 13016KT 21/06 A2998 RMK A01 T02080060  RH  038%=      5-min Rain = 0
KBO1 150310Z 13019KT 21/07 A2998 RMK A01 T02090069  RH  040%=      5-min Rain = 0
KBO1 150311Z 13017KT 21/07 A2998 RMK A01 T02100071  RH  040%=      5-min Rain = 0
KBO1 150312Z 12018KT 21/07 A2998 RMK A01 T02110072  RH  041%=      5-min Rain = 0
KBO1 150313Z 13016KT 21/07 A2998 RMK A01 T02100074  RH  041%=      5-min Rain = 0
KBO1 150314Z 13016KT 21/08 A2998 RMK A01 T02100077  RH  042%=      5-min Rain = 0
KBO1 150315Z 13014KT 21/08 A2998 RMK A01 T02100079  RH  043%=      5-min Rain = 0
KBO1 150316Z 13015KT 21/08 A2998 RMK A01 T02100079  RH  043%=      5-min Rain = 0
KBO1 150317Z 13018KT 21/08 A2998 RMK A01 T02090081  RH  044%=      5-min Rain = 0
KBO1 150318Z 13016KT 21/08 A2998 RMK A01 T02100082  RH  044%=      5-min Rain = 0
KBO1 150319Z 13015KT 21/08 A2998 RMK A01 T02100082  RH  044%=      5-min Rain = 0
KBO1 150320Z 13015KT 21/08 A2998 RMK A01 T02100083  RH  044%=      5-min Rain = 0
KBO1 150321Z 13014KT 21/08 A2998 RMK A01 T02090084  RH  044%=      5-min Rain = 0
KBO1 150322Z 13013KT 21/08 A2998 RMK A01 T02090084  RH  045%=      5-min Rain = 0
KBO1 150323Z 13014KT 21/08 A2998 RMK A01 T02080084  RH  045%=      5-min Rain = 0
KBO1 150324Z 13012KT 21/09 A2998 RMK A01 T02080085  RH  045%=      5-min Rain = 0
KBO1 150325Z 14014KT 21/08 A2998 RMK A01 T02060084  RH  045%=      5-min Rain = 0
KBO1 150326Z 13015KT 21/08 A2998 RMK A01 T02060084  RH  046%=      5-min Rain = 0
KBO1 150327Z 14017KT 21/09 A2998 RMK A01 T02060085  RH  046%=      5-min Rain = 0
KBO1 150328Z 14015KT 21/09 A2998 RMK A01 T02070086  RH  046%=      5-min Rain = 0
KBO1 150329Z 14014KT 21/09 A2998 RMK A01 T02060086  RH  046%=      5-min Rain = 0
KBO1 150330Z 14015KT 21/09 A2998 RMK A01 T02060087  RH  046%=      5-min Rain = 0
KBO1 150331Z 14016KT 21/09 A2998 RMK A01 T02050087  RH  047%=      5-min Rain = 0
KBO1 150332Z 14015KT 21/09 A2998 RMK A01 T02050089  RH  047%=      5-min Rain = 0
KBO1 150333Z 14014KT 21/09 A2999 RMK A01 T02050088  RH  047%=      5-min Rain = 0
KBO1 150334Z 14014KT 21/09 A2998 RMK A01 T02050089  RH  047%=      5-min Rain = 0
KBO1 150335Z 14014KT 21/09 A2998 RMK A01 T02050089  RH  047%=      5-min Rain = 0
KBO1 150336Z 14017KT 20/09 A2998 RMK A01 T02040089  RH  048%=      5-min Rain = 0
KBO1 150337Z 14014KT 20/09 A2998 RMK A01 T02040089  RH  048%=      5-min Rain = 0
KBO1 150338Z 14017KT 20/09 A2998 RMK A01 T02040090  RH  048%=      5-min Rain = 0
KBO1 150339Z 14014KT 20/09 A2998 RMK A01 T02040090  RH  048%=      5-min Rain = 0
KBO1 150340Z 14016G21KT 20/09 A2999 RMK A01 T02040090  RH  048%=      5-min Rain = 0
KBO1 150341Z 14015KT 20/09 A2999 RMK A01 T02030090  RH  048%=      5-min Rain = 0
KBO1 150342Z 14016KT 20/09 A2999 RMK A01 T02030090  RH  048%=      5-min Rain = 0
KBO1 150343Z 14015KT 20/09 A2999 RMK A01 T02020090  RH  048%=      5-min Rain = 0
KBO1 150344Z 14015KT 20/09 A2999 RMK A01 T02020091  RH  049%=      5-min Rain = 0
KBO1 150345Z 14014KT 20/09 A2999 RMK A01 T02020091  RH  049%=      5-min Rain = 0
KBO1 150346Z 14016KT 20/09 A2999 RMK A01 T02020091  RH  049%=      5-min Rain = 0
KBO1 150347Z 13017KT 20/09 A2999 RMK A01 T02020091  RH  049%=      5-min Rain = 0
KBO1 150348Z 13016KT 20/09 A2999 RMK A01 T02010092  RH  049%=      5-min Rain = 0
KBO1 150349Z 13015KT 20/09 A2999 RMK A01 T02020092  RH  049%=      5-min Rain = 0
KBO1 150350Z 14014KT 20/09 A2999 RMK A01 T02020092  RH  049%=      5-min Rain = 0
KBO1 150351Z 14015KT 20/09 A2999 RMK A01 T02020092  RH  049%=      5-min Rain = 0
KBO1 150352Z 14015KT 20/09 A2999 RMK A01 T02010092  RH  049%=      5-min Rain = 0
KBO1 150353Z 14014KT 20/09 A2999 RMK A01 T02010092  RH  050%=      5-min Rain = 0
KBO1 150354Z 14014KT 20/09 A2999 RMK A01 T02010092  RH  050%=      5-min Rain = 0
KBO1 150355Z 13014KT 20/09 A2999 RMK A01 T02000092  RH  050%=      5-min Rain = 0
KBO1 150356Z 13015KT 20/09 A2999 RMK A01 T02000092  RH  050%=      5-min Rain = 0
KBO1 150357Z 13014KT 20/09 A2999 RMK A01 T02000093  RH  050%=      5-min Rain = 0
KBO1 150358Z 13014KT 20/09 A2999 RMK A01 T02000093  RH  050%=      5-min Rain = 0
KBO1 150359Z 13013KT 20/09 A30 RMK A01 T02000093  RH  050%=      5-min Rain = 0
KBO1 150400Z 13014KT 20/09 A30 RMK A01 T02000093  RH  050%=      5-min Rain = 0
KBO1 150401Z 13014KT 20/09 A30 RMK A01 T01990093  RH  050%=      5-min Rain = 0
KBO1 150402Z 13014KT 20/09 A30 RMK A01 T02000093  RH  050%=      5-min Rain = 0
KBO1 150403Z 13013KT 20/09 A30 RMK A01 T02000094  RH  050%=      5-min Rain = 0
KBO1 150404Z 13014KT 20/09 A30 RMK A01 T02000093  RH  050%=      5-min Rain = 0
KBO1 150405Z 13014KT 20/09 A30 RMK A01 T02000094  RH  050%=      5-min Rain = 0
KBO1 150406Z 13012KT 20/09 A30 RMK A01 T01990093  RH  050%=      5-min Rain = 0
KBO1 150407Z 13013KT 20/09 A30 RMK A01 T01990094  RH  051%=      5-min Rain = 0
KBO1 150408Z 13012KT 20/09 A30 RMK A01 T01990094  RH  051%=      5-min Rain = 0
KBO1 150409Z 13013KT 20/09 A30 RMK A01 T01990094  RH  051%=      5-min Rain = 0
KBO1 150410Z 13013KT 20/09 A30 RMK A01 T01990094  RH  051%=      5-min Rain = 0
KBO1 150411Z 13012KT 20/09 A30 RMK A01 T01980093  RH  051%=      5-min Rain = 0
KBO1 150412Z 13012KT 20/09 A30 RMK A01 T01980094  RH  051%=      5-min Rain = 0
KBO1 150413Z 13012KT 20/09 A30 RMK A01 T01970093  RH  051%=      5-min Rain = 0
KBO1 150414Z 14013KT 20/09 A30 RMK A01 T01970094  RH  051%=      5-min Rain = 0
KBO1 150415Z 13014KT 20/09 A30 RMK A01 T01970094  RH  051%=      5-min Rain = 0
KBO1 150416Z 13012KT 20/10 A30 RMK A01 T01970095  RH  052%=      5-min Rain = 0
KBO1 150417Z 13012KT 20/09 A30 RMK A01 T01970094  RH  051%=      5-min Rain = 0
KBO1 150418Z 14014KT 20/10 A30 RMK A01 T01970095  RH  052%=      5-min Rain = 0
KBO1 150419Z 13013KT 20/10 A30 RMK A01 T01970096  RH  052%=      5-min Rain = 0
KBO1 150420Z 13013KT 20/10 A30 RMK A01 T01970096  RH  052%=      5-min Rain = 0
KBO1 150421Z 13014KT 20/10 A30 RMK A01 T01970096  RH  052%=      5-min Rain = 0
KBO1 150422Z 13014KT 20/10 A30 RMK A01 T01970097  RH  052%=      5-min Rain = 0
KBO1 150423Z 13013KT 20/10 A30 RMK A01 T01970097  RH  052%=      5-min Rain = 0
KBO1 150424Z 14013KT 20/10 A30 RMK A01 T01980097  RH  052%=      5-min Rain = 0
KBO1 150425Z 13014KT 20/10 A30 RMK A01 T01970097  RH  052%=      5-min Rain = 0
KBO1 150426Z 13013KT 20/10 A30 RMK A01 T01980098  RH  052%=      5-min Rain = 0
KBO1 150427Z 13013KT 20/10 A30 RMK A01 T01970098  RH  052%=      5-min Rain = 0
KBO1 150428Z 13012KT 20/10 A30 RMK A01 T01970098  RH  053%=      5-min Rain = 0
KBO1 150429Z 13011KT 20/10 A30 RMK A01 T01970098  RH  053%=      5-min Rain = 0
KBO1 150430Z 13011KT 20/10 A30 RMK A01 T01970098  RH  053%=      5-min Rain = 0
KBO1 150431Z 13011KT 20/10 A30 RMK A01 T01960098  RH  053%=      5-min Rain = 0
KBO1 150432Z 14011KT 20/10 A30 RMK A01 T01950098  RH  053%=      5-min Rain = 0
KBO1 150433Z 14011KT 20/10 A30 RMK A01 T01950099  RH  054%=      5-min Rain = 0
KBO1 150434Z 14011KT 20/10 A30 RMK A01 T01950099  RH  054%=      5-min Rain = 0
KBO1 150435Z 14013KT 20/10 A30 RMK A01 T01950099  RH  054%=      5-min Rain = 0
KBO1 150436Z 14012KT 20/10 A30 RMK A01 T01960100  RH  054%=      5-min Rain = 0
KBO1 150437Z 14012KT 20/10 A30 RMK A01 T01970100  RH  054%=      5-min Rain = 0
KBO1 150438Z 14011KT 20/10 A30 RMK A01 T01970100  RH  054%=      5-min Rain = 0
KBO1 150439Z 14011KT 20/10 A30 RMK A01 T01970100  RH  054%=      5-min Rain = 0
KBO1 150440Z 15012KT 20/10 A3001 RMK A01 T01970100  RH  054%=      5-min Rain = 0
KBO1 150441Z 15010KT 20/10 A3001 RMK A01 T01970101  RH  054%=      5-min Rain = 0
KBO1 150442Z 15012KT 20/10 A3001 RMK A01 T01970101  RH  054%=      5-min Rain = 0
KBO1 150443Z 15012KT 20/10 A3001 RMK A01 T01970101  RH  054%=      5-min Rain = 0
KBO1 150444Z 15010KT 20/10 A3001 RMK A01 T01980101  RH  054%=      5-min Rain = 0
KBO1 150445Z 14009KT 20/10 A3001 RMK A01 T01980101  RH  054%=      5-min Rain = 0
KBO1 150446Z 14010KT 20/10 A3001 RMK A01 T01970101  RH  054%=      5-min Rain = 0
KBO1 150447Z 14011KT 20/10 A3001 RMK A01 T01970101  RH  054%=      5-min Rain = 0
KBO1 150448Z 14012KT 20/10 A3001 RMK A01 T01970102  RH  054%=      5-min Rain = 0
KBO1 150449Z 12011KT 20/10 A30 RMK A01 T01970102  RH  054%=      5-min Rain = 0
KBO1 150450Z 12015KT 20/10 A30 RMK A01 T01960102  RH  054%=      5-min Rain = 0
KBO1 150451Z 13015KT 20/10 A3001 RMK A01 T01970103  RH  054%=      5-min Rain = 0
KBO1 150452Z 13012KT 20/10 A3001 RMK A01 T01970103  RH  054%=      5-min Rain = 0
KBO1 150453Z 13016KT 20/10 A30 RMK A01 T01970102  RH  054%=      5-min Rain = 0
KBO1 150454Z 13016KT 20/10 A30 RMK A01 T01980103  RH  054%=      5-min Rain = 0
KBO1 150455Z 13019G27KT 20/10 A30 RMK A01 T01990102  RH  053%=      5-min Rain = 0
KBO1 150456Z 14020G27KT 20/10 A30 RMK A01 T02040100  RH  051%=      5-min Rain = 0
KBO1 150457Z 12016KT 21/10 A30 RMK A01 T02100101  RH  050%=      5-min Rain = 0
KBO1 150458Z 10012KT 21/10 A30 RMK A01 T02120098  RH  048%=      5-min Rain = 0
KBO1 150459Z 12009KT 21/10 A30 RMK A01 T02140096  RH  047%=      5-min Rain = 0

Page generated in 0.1789 seconds.